Another Hard Day at the Office Weather Stats

 
 
 

High monthly outside Temperature, 22.8 , C
Low monthly outside Temperature, -1.0 , C
High yearly outside Temperature, 30.9 , C
Low yearly outside Temperature, -2.2 , C

Low monthly barometer, 1001.1 , mb
High monthly barometer, 1028.0 , mb
Low yearly barometer, 975.0 , mb
High yearly barometer 1041.1 , mb

High wind speed, 25.0 , mph
Time of High wind speed, 21:37 , mph
High monthly wind speed, 47.0 , mph
High yearly wind speed, 55.0 , mph

 

 




3126
                    Temp     Hi    Low   Out    Dew  Wind  Wind   Wind    Hi    Hi   Wind   Heat    THW                Rain    Heat    Cool    In     In    In     In     In   In Air  Wind  Wind    ISS   Arc.
  Date    Time     Out   Temp   Temp   Hum    Pt. Speed   Dir    Run Speed   Dir  Chill  Index  Index   Bar    Rain  Rate    D-D     D-D    Temp   Hum    Dew   Heat    EMC Density  Samp   Tx   Recept  Int.
---------------------------------------------------------------------------------------------------------------------------------------------------------------------------------------------------------------
14/11/17   0:05    8.1    8.1    8.0    74    3.8   3.0    NW   0.25   6.0    NW    7.7    7.9    7.5  1025.5  0.00  0.00   0.035   0.000   24.4    37    8.8   23.8   7.23  .0742    115    1    100.0    5 
14/11/17   0:10    8.3    8.3    8.1    73    3.7   3.0    NW   0.25   5.0    NW    7.9    8.1    7.7  1025.4  0.00  0.00   0.035   0.000   24.4    37    8.8   23.8   7.23  .0741    117    1    100.0    5 
14/11/17   0:15    8.4    8.4    8.3    73    3.9   2.0    NW   0.17   5.0    NW    8.4    8.2    8.2  1025.3  0.00  0.00   0.034   0.000   24.4    37    8.8   23.8   7.23  .0741    117    1    100.0    5 
14/11/17   0:20    8.5    8.5    8.4    72    3.7   3.0    NW   0.25   5.0    NW    8.1    8.3    7.9  1025.2  0.00  0.00   0.034   0.000   24.4    37    8.8   23.8   7.23  .0741    116    1    100.0    5 
14/11/17   0:25    8.5    8.5    8.4    72    3.7   2.0    NW   0.17   4.0    NW    8.5    8.3    8.3  1025.2  0.00  0.00   0.034   0.000   24.4    37    8.8   23.8   7.23  .0741    115    1    100.0    5 
14/11/17   0:30    8.7    8.7    8.5    72    4.0   2.0    NW   0.17   5.0    NW    8.7    8.5    8.5  1025.2  0.00  0.00   0.033   0.000   24.4    38    9.2   23.9   7.33  .0741    116    1    100.0    5 
14/11/17   0:35    8.8    8.8    8.7    71    3.9   1.0    NW   0.08   3.0    NW    8.8    8.6    8.6  1025.2  0.00  0.00   0.033   0.000   24.4    38    9.2   23.9   7.33  .0741    115    1    100.0    5 
14/11/17   0:40    8.9    8.9    8.8    71    3.9   2.0    NW   0.17   3.0    NW    8.9    8.6    8.6  1025.1  0.00  0.00   0.033   0.000   24.4    38    9.2   23.9   7.33  .0741    117    1    100.0    5 
14/11/17   0:45    8.8    8.9    8.8    71    3.9   1.0    NW   0.08   3.0    NW    8.8    8.6    8.6  1025.0  0.00  0.00   0.033   0.000   24.4    38    9.2   23.9   7.33  .0741    116    1    100.0    5 
14/11/17   0:50    8.8    8.8    8.8    71    3.8   1.0    NW   0.08   3.0    NW    8.8    8.5    8.5  1025.0  0.00  0.00   0.033   0.000   24.4    38    9.2   23.9   7.33  .0741    117    1    100.0    5 
14/11/17   0:55    8.8    8.8    8.8    72    4.1   1.0    NW   0.08   3.0    NW    8.8    8.6    8.6  1024.9  0.00  0.00   0.033   0.000   24.4    38    9.2   23.9   7.33  .0741    117    1    100.0    5 
14/11/17   1:00    8.8    8.8    8.8    72    4.1   1.0    NW   0.08   3.0    NW    8.8    8.6    8.6  1024.9  0.00  0.00   0.033   0.000   24.4    38    9.2   23.9   7.33  .0741    118    1    100.0    5 
14/11/17   1:05    8.7    8.8    8.7    72    4.0   1.0    NW   0.08   4.0    NW    8.7    8.5    8.5  1024.8  0.00  0.00   0.033   0.000   24.4    38    9.2   23.9   7.33  .0741    117    1    100.0    5 
14/11/17   1:10    8.7    8.7    8.7    72    4.0   1.0    NW   0.08   2.0    NW    8.7    8.5    8.5  1024.9  0.00  0.00   0.033   0.000   24.4    38    9.2   23.9   7.33  .0741    116    1    100.0    5 
14/11/17   1:15    8.7    8.7    8.7    72    4.0   1.0    NW   0.08   3.0    NW    8.7    8.5    8.5  1025.0  0.00  0.00   0.033   0.000   24.4    38    9.1   23.8   7.33  .0741    117    1    100.0    5 
14/11/17   1:20    8.8    8.8    8.7    73    4.3   1.0    NW   0.08   3.0    NW    8.8    8.6    8.6  1025.0  0.00  0.00   0.033   0.000   24.4    38    9.1   23.8   7.33  .0741    116    1    100.0    5 
14/11/17   1:25    9.0    9.0    8.8    73    4.4   1.0    NW   0.08   3.0    NW    9.0    8.8    8.8  1024.9  0.00  0.00   0.032   0.000   24.4    38    9.1   23.8   7.33  .0741    117    1    100.0    5 
14/11/17   1:30    9.1    9.1    9.0    72    4.3   2.0    NW   0.17   4.0    NW    9.1    8.8    8.8  1024.9  0.00  0.00   0.032   0.000   24.4    38    9.1   23.8   7.33  .0741    117    1    100.0    5 
14/11/17   1:35    9.1    9.1    9.1    72    4.3   2.0    NW   0.17   4.0    NW    9.1    8.9    8.9  1024.9  0.00  0.00   0.032   0.000   24.3    38    9.1   23.8   7.33  .0741    115    1    100.0    5 
14/11/17   1:40    9.2    9.2    9.1    72    4.4   3.0    NW   0.25   4.0    NW    8.9    9.0    8.7  1024.8  0.00  0.00   0.032   0.000   24.3    38    9.1   23.8   7.33  .0741    116    1    100.0    5 
14/11/17   1:45    9.3    9.3    9.2    72    4.5   2.0    NW   0.17   4.0    NW    9.3    9.1    9.1  1024.8  0.00  0.00   0.031   0.000   24.3    38    9.1   23.8   7.33  .0741    117    1    100.0    5 
14/11/17   1:50    9.7    9.7    9.3    71    4.7   2.0    NW   0.17   4.0    NW    9.7    9.4    9.4  1024.8  0.00  0.00   0.030   0.000   24.3    38    9.1   23.8   7.33  .0741    116    1    100.0    5 
14/11/17   1:55    9.7    9.7    9.7    70    4.5   2.0    NW   0.17   4.0    NW    9.7    9.4    9.4  1024.7  0.00  0.00   0.030   0.000   24.3    38    9.1   23.8   7.33  .0741    116    1    100.0    5 
14/11/17   2:00    9.6    9.7    9.6    69    4.1   3.0    NW   0.25   5.0    NW    9.3    9.3    9.1  1024.6  0.00  0.00   0.030   0.000   24.3    38    9.1   23.8   7.33  .0741    117    1    100.0    5 
14/11/17   2:05    9.4    9.6    9.4    69    4.0   3.0    NW   0.25   4.0    NW    9.2    9.2    8.9  1024.5  0.00  0.00   0.031   0.000   24.4    38    9.1   23.8   7.33  .0741    117    1    100.0    5 
14/11/17   2:10    9.4    9.4    9.4    69    4.0   2.0    NW   0.17   4.0    NW    9.4    9.2    9.2  1024.5  0.00  0.00   0.031   0.000   24.3    38    9.1   23.8   7.33  .0741    117    1    100.0    5 
14/11/17   2:15    9.3    9.4    9.3    70    4.1   1.0    NW   0.08   5.0    NW    9.3    9.1    9.1  1024.4  0.00  0.00   0.031   0.000   24.3    38    9.1   23.8   7.33  .0741    116    1    100.0    5 
14/11/17   2:20    9.6    9.6    9.3    70    4.3   1.0    NW   0.08   3.0    NW    9.6    9.3    9.3  1024.4  0.00  0.00   0.030   0.000   24.3    38    9.1   23.8   7.33  .0741    116    1    100.0    5 
14/11/17   2:25    9.8    9.8    9.6    70    4.6   2.0    NW   0.17   4.0    NW    9.8    9.6    9.6  1024.4  0.00  0.00   0.030   0.000   24.3    38    9.0   23.7   7.34  .0741    117    1    100.0    5 
14/11/17   2:30    9.9    9.9    9.8    69    4.5   2.0    NW   0.17   4.0    NW    9.9    9.7    9.7  1024.4  0.00  0.00   0.029   0.000   24.3    38    9.0   23.7   7.34  .0741    117    1    100.0    5 
14/11/17   2:35    9.9    9.9    9.8    69    4.5   1.0    NW   0.08   3.0    NW    9.9    9.7    9.7  1024.4  0.00  0.00   0.029   0.000   24.3    38    9.0   23.7   7.34  .0741    117    1    100.0    5 
14/11/17   2:40    9.9    9.9    9.9    69    4.5   2.0    NW   0.17   4.0    NW    9.9    9.7    9.7  1024.3  0.00  0.00   0.029   0.000   24.3    38    9.0   23.7   7.34  .0741    116    1    100.0    5 
14/11/17   2:45    9.8    9.9    9.8    69    4.4   2.0    NW   0.17   3.0    NW    9.8    9.6    9.6  1024.3  0.00  0.00   0.030   0.000   24.3    38    9.0   23.7   7.34  .0741    117    1    100.0    5 
14/11/17   2:50    9.7    9.8    9.7    69    4.3   1.0    NW   0.08   3.0    NW    9.7    9.5    9.5  1024.1  0.00  0.00   0.030   0.000   24.3    38    9.0   23.7   7.34  .0741    117    1    100.0    5 
14/11/17   2:55    9.6    9.7    9.6    69    4.2   2.0    NW   0.17   3.0    NW    9.6    9.4    9.4  1024.1  0.00  0.00   0.030   0.000   24.3    38    9.0   23.7   7.34  .0741    117    1    100.0    5 
14/11/17   3:00    9.6    9.6    9.6    70    4.3   2.0    NW   0.17   5.0    NW    9.6    9.3    9.3  1024.0  0.00  0.00   0.030   0.000   24.3    38    9.0   23.7   7.34  .0741    117    1    100.0    5 
14/11/17   3:05    9.5    9.6    9.5    70    4.3   3.0    NW   0.25   5.0    NW    9.2    9.3    9.0  1024.1  0.00  0.00   0.031   0.000   24.2    38    9.0   23.7   7.34  .0741    117    1    100.0    5 
14/11/17   3:10    9.4    9.5    9.4    71    4.4   3.0    NW   0.25   5.0    NW    9.2    9.2    8.9  1024.1  0.00  0.00   0.031   0.000   24.2    38    9.0   23.7   7.34  .0741    117    1    100.0    5 
14/11/17   3:15    9.4    9.4    9.4    71    4.4   2.0    NW   0.17   4.0    NW    9.4    9.2    9.2  1024.0  0.00  0.00   0.031   0.000   24.2    38    9.0   23.7   7.34  .0741    117    1    100.0    5 
14/11/17   3:20    9.6    9.6    9.4    71    4.6   3.0    NW   0.25   4.0    NW    9.3    9.3    9.1  1023.9  0.00  0.00   0.030   0.000   24.3    38    9.0   23.7   7.34  .0741    116    1    100.0    5 
14/11/17   3:25    9.4    9.6    9.4    71    4.4   3.0    NW   0.25   5.0    NW    9.2    9.2    8.9  1023.8  0.00  0.00   0.031   0.000   24.2    38    9.0   23.7   7.34  .0741    117    1    100.0    5 
14/11/17   3:30    9.3    9.4    9.3    72    4.5   4.0    NW   0.33   8.0    NW    8.6    9.1    8.4  1023.8  0.00  0.00   0.031   0.000   24.3    38    9.0   23.7   7.34  .0741    117    1    100.0    5 
14/11/17   3:35    9.1    9.3    9.1    73    4.5   5.0   WNW   0.42   8.0   WNW    7.9    8.9    7.7  1023.7  0.00  0.00   0.032   0.000   24.3    38    9.0   23.7   7.34  .0741    116    1    100.0    5 
14/11/17   3:40    9.0    9.1    9.0    74    4.6   5.0   WNW   0.42   7.0   WNW    7.8    8.8    7.7  1023.7  0.00  0.00   0.032   0.000   24.2    38    9.0   23.7   7.34  .0741    116    1    100.0    5 
14/11/17   3:45    9.0    9.0    8.9    75    4.8   4.0     W   0.33   8.0     W    8.2    8.8    8.1  1023.7  0.00  0.00   0.032   0.000   24.2    38    9.0   23.7   7.34  .0741    117    1    100.0    5 
14/11/17   3:50    8.9    9.0    8.9    75    4.7   3.0     W   0.25   7.0     W    8.6    8.8    8.4  1023.8  0.00  0.00   0.033   0.000   24.2    38    9.0   23.7   7.34  .0741    116    1    100.0    5 
14/11/17   3:55    9.0    9.0    8.9    75    4.8   3.0     W   0.25   5.0     W    8.7    8.8    8.5  1023.7  0.00  0.00   0.032   0.000   24.3    38    9.1   23.8   7.33  .0740    116    1    100.0    5 
14/11/17   4:00    8.9    9.0    8.9    75    4.7   4.0     W   0.33   7.0     W    8.1    8.7    7.9  1023.6  0.00  0.00   0.033   0.000   24.3    38    9.0   23.7   7.34  .0740    117    1    100.0    5 
14/11/17   4:05    8.7    8.9    8.7    75    4.5   4.0     W   0.33   7.0     W    7.9    8.6    7.7  1023.7  0.00  0.00   0.033   0.000   24.3    38    9.0   23.7   7.34  .0741    116    1    100.0    5 
14/11/17   4:10    8.7    8.7    8.7    76    4.7   3.0     W   0.25   6.0     W    8.3    8.5    8.2  1023.6  0.00  0.00   0.034   0.000   24.3    38    9.0   23.7   7.34  .0740    117    1    100.0    5 
14/11/17   4:15    8.4    8.7    8.4    75    4.3   4.0     W   0.33   6.0     W    7.6    8.3    7.4  1023.5  0.00  0.00   0.034   0.000   24.2    38    9.0   23.7   7.34  .0741    117    1    100.0    5 
14/11/17   4:20    8.3    8.4    8.3    76    4.3   4.0     W   0.33   7.0     W    7.4    8.2    7.3  1023.6  0.00  0.00   0.035   0.000   24.2    38    8.9   23.6   7.34  .0741    116    1    100.0    5 
14/11/17   4:25    8.3    8.3    8.3    76    4.3   4.0     W   0.33   6.0     W    7.4    8.1    7.2  1023.5  0.00  0.00   0.035   0.000   24.2    38    8.9   23.6   7.34  .0741    117    1    100.0    5 
14/11/17   4:30    8.3    8.3    8.3    76    4.3   3.0     W   0.25   7.0     W    7.9    8.2    7.8  1023.6  0.00  0.00   0.035   0.000   24.2    38    8.9   23.6   7.34  .0741    117    1    100.0    5 
14/11/17   4:35    8.4    8.4    8.3    77    4.6   2.0     W   0.17   4.0     W    8.4    8.3    8.3  1023.6  0.00  0.00   0.034   0.000   24.2    38    8.9   23.6   7.34  .0741    116    1    100.0    5 
14/11/17   4:40    8.6    8.6    8.4    77    4.8   2.0     W   0.17   6.0     W    8.6    8.4    8.4  1023.6  0.00  0.00   0.034   0.000   24.2    38    8.9   23.6   7.34  .0741    116    1    100.0    5 
14/11/17   4:45    8.6    8.6    8.6    76    4.6   3.0     W   0.25   6.0     W    8.2    8.4    8.1  1023.6  0.00  0.00   0.034   0.000   24.2    38    8.9   23.6   7.34  .0741    116    1    100.0    5 
14/11/17   4:50    8.7    8.7    8.6    76    4.7   3.0     W   0.25   5.0     W    8.3    8.5    8.2  1023.6  0.00  0.00   0.034   0.000   24.2    38    8.9   23.6   7.34  .0741    117    1    100.0    5 
14/11/17   4:55    8.7    8.7    8.7    76    4.7   4.0     W   0.33   6.0     W    7.8    8.5    7.7  1023.6  0.00  0.00   0.034   0.000   24.2    39    9.3   23.7   7.54  .0741    116    1    100.0    5 
14/11/17   5:00    8.7    8.7    8.6    76    4.7   3.0     W   0.25   5.0     W    8.3    8.5    8.2  1023.5  0.00  0.00   0.034   0.000   24.2    39    9.3   23.7   7.54  .0740    116    1    100.0    5 
14/11/17   5:05    8.7    8.7    8.7    76    4.7   3.0     W   0.25   6.0     W    8.4    8.6    8.2  1023.6  0.00  0.00   0.033   0.000   24.1    38    8.9   23.6   7.34  .0741    117    1    100.0    5 
14/11/17   5:10    8.6    8.7    8.6    76    4.6   3.0     W   0.25   5.0     W    8.2    8.4    8.0  1023.6  0.00  0.00   0.034   0.000   24.1    38    8.9   23.6   7.34  .0741    117    1    100.0    5 
14/11/17   5:15    8.3    8.6    8.3    76    4.3   4.0     W   0.33   6.0     W    7.4    8.1    7.2  1023.6  0.00  0.00   0.035   0.000   24.1    38    8.9   23.6   7.34  .0741    117    1    100.0    5 
14/11/17   5:20    8.2    8.3    8.2    77    4.4   5.0     W   0.42   8.0     W    6.8    8.0    6.7  1023.4  0.00  0.00   0.035   0.000   24.1    39    9.3   23.6   7.54  .0741    116    1    100.0    5 
14/11/17   5:25    8.2    8.2    8.2    77    4.4   5.0     W   0.42   9.0     W    6.8    8.0    6.7  1023.5  0.00  0.00   0.035   0.000   24.1    39    9.2   23.6   7.54  .0741    117    1    100.0    5 
14/11/17   5:30    8.2    8.2    8.2    78    4.6   4.0     W   0.33   9.0     W    7.2    8.0    7.1  1023.4  0.00  0.00   0.035   0.000   24.1    39    9.2   23.6   7.54  .0741    116    1    100.0    5 
14/11/17   5:35    8.3    8.3    8.2    78    4.7   4.0     W   0.33   7.0     W    7.4    8.2    7.3  1023.4  0.00  0.00   0.035   0.000   24.1    38    8.9   23.5   7.34  .0741    116    1    100.0    5 
14/11/17   5:40    8.4    8.4    8.3    78    4.8   4.0     W   0.33   6.0     W    7.6    8.3    7.4  1023.4  0.00  0.00   0.034   0.000   24.1    38    8.9   23.5   7.34  .0741    117    1    100.0    5 
14/11/17   5:45    8.6    8.6    8.4    79    5.2   3.0     W   0.25   6.0     W    8.2    8.5    8.1  1023.4  0.00  0.00   0.034   0.000   24.1    38    8.9   23.5   7.34  .0741    116    1    100.0    5 
14/11/17   5:50    8.9    8.9    8.6    79    5.4   3.0     W   0.25   5.0     W    8.6    8.8    8.5  1023.4  0.00  0.00   0.033   0.000   24.1    39    9.2   23.6   7.54  .0741    117    1    100.0    5 
14/11/17   5:55    9.2    9.2    8.9    79    5.7   3.0     W   0.25   5.0     W    8.9    9.1    8.8  1023.4  0.00  0.00   0.032   0.000   24.1    39    9.2   23.6   7.54  .0741    115    1    100.0    5 
14/11/17   6:00    9.4    9.4    9.2    79    5.9   3.0     W   0.25   7.0     W    9.1    9.3    9.1  1023.4  0.00  0.00   0.031   0.000   24.1    39    9.2   23.6   7.54  .0741    117    1    100.0    5 
14/11/17   6:05    9.6    9.6    9.4    78    6.0   2.0     W   0.17   5.0     W    9.6    9.5    9.5  1023.4  0.00  0.00   0.030   0.000   24.0    39    9.2   23.5   7.55  .0741    117    1    100.0    5 
14/11/17   6:10    9.8    9.8    9.6    78    6.1   3.0     W   0.25   5.0     W    9.6    9.7    9.5  1023.4  0.00  0.00   0.030   0.000   24.1    39    9.2   23.6   7.54  .0741    117    1    100.0    5 
14/11/17   6:15    9.9    9.9    9.8    78    6.2   3.0     W   0.25   6.0     W    9.7    9.8    9.7  1023.3  0.00  0.00   0.029   0.000   24.1    38    8.9   23.5   7.34  .0741    116    1    100.0    5 
14/11/17   6:20   10.1   10.1    9.9    77    6.2   3.0     W   0.25   5.0     W    9.9   10.0    9.8  1023.2  0.00  0.00   0.029   0.000   24.1    39    9.2   23.6   7.54  .0741    116    1    100.0    5 
14/11/17   6:25   10.0   10.1    9.9    77    6.2   3.0     W   0.25   6.0     W    9.8    9.9    9.8  1023.3  0.00  0.00   0.029   0.000   24.1    39    9.2   23.6   7.54  .0741    117    1    100.0    5 
14/11/17   6:30    9.9    9.9    9.9    77    6.0   3.0     W   0.25   5.0     W    9.7    9.8    9.7  1023.3  0.00  0.00   0.029   0.000   24.1    39    9.2   23.6   7.54  .0741    117    1    100.0    5 
14/11/17   6:35    9.9    9.9    9.9    77    6.0   3.0     W   0.25   6.0     W    9.7    9.8    9.7  1023.3  0.00  0.00   0.029   0.000   24.1    39    9.2   23.6   7.54  .0741    117    1    100.0    5 
14/11/17   6:40    9.9    9.9    9.9    77    6.1   3.0     W   0.25   6.0     W    9.8    9.9    9.7  1023.3  0.00  0.00   0.029   0.000   24.1    39    9.2   23.6   7.54  .0741    117    1    100.0    5 
14/11/17   6:45   10.1   10.1    9.9    78    6.4   3.0     W   0.25   5.0     W    9.9   10.0    9.8  1023.3  0.00  0.00   0.029   0.000   24.1    39    9.2   23.6   7.54  .0741    117    1    100.0    5 
14/11/17   6:50   10.1   10.1   10.1    77    6.2   4.0     W   0.33   6.0     W    9.4   10.0    9.4  1023.2  0.00  0.00   0.029   0.000   24.1    39    9.2   23.6   7.54  .0741    117    1    100.0    5 
14/11/17   6:55   10.1   10.1   10.1    77    6.2   4.0     W   0.33   6.0     W    9.4   10.0    9.4  1023.2  0.00  0.00   0.029   0.000   24.1    39    9.3   23.6   7.54  .0740    117    1    100.0    5 
14/11/17   7:00    9.9   10.1    9.9    77    6.0   4.0     W   0.33   7.0     W    9.3    9.8    9.2  1023.2  0.00  0.00   0.029   0.000   24.1    39    9.3   23.6   7.54  .0740    117    1    100.0    5 
14/11/17   7:05    9.8    9.9    9.8    77    5.9   4.0     W   0.33   7.0     W    9.1    9.7    9.0  1023.3  0.00  0.00   0.030   0.000   24.1    39    9.3   23.6   7.54  .0741    116    1    100.0    5 
14/11/17   7:10    9.7    9.8    9.7    78    6.0   4.0     W   0.33   8.0     W    9.0    9.6    8.9  1023.3  0.00  0.00   0.030   0.000   24.1    39    9.3   23.6   7.54  .0741    117    1    100.0    5 
14/11/17   7:15    9.6    9.7    9.6    78    6.0   4.0     W   0.33   7.0     W    8.9    9.5    8.8  1023.4  0.00  0.00   0.030   0.000   24.1    39    9.3   23.6   7.54  .0741    116    1    100.0    5 
14/11/17   7:20    9.6    9.6    9.6    78    6.0   4.0     W   0.33   7.0     W    8.9    9.5    8.8  1023.4  0.00  0.00   0.030   0.000   24.1    39    9.3   23.6   7.54  .0741    117    1    100.0    5 
14/11/17   7:25    9.7    9.7    9.6    79    6.3   4.0   WNW   0.33   8.0   WNW    9.1    9.7    9.0  1023.4  0.00  0.00   0.030   0.000   24.1    39    9.3   23.6   7.54  .0741    115    1    100.0    5 
14/11/17   7:30    9.7    9.8    9.7    78    6.1   4.0   WNW   0.33   8.0   WNW    9.1    9.7    9.0  1023.4  0.00  0.00   0.030   0.000   24.1    39    9.3   23.6   7.54  .0741    117    1    100.0    5 
14/11/17   7:35    9.7    9.8    9.7    78    6.1   4.0   WNW   0.33   8.0   WNW    9.1    9.7    9.0  1023.4  0.00  0.00   0.030   0.000   24.1    39    9.3   23.6   7.54  .0741    116    1    100.0    5 
14/11/17   7:40    9.7    9.7    9.7    78    6.1   4.0   WNW   0.33   7.0   WNW    9.1    9.7    9.0  1023.4  0.00  0.00   0.030   0.000   24.1    39    9.3   23.6   7.54  .0741    116    1    100.0    5 
14/11/17   7:45    9.7    9.7    9.7    79    6.3   4.0   WNW   0.33   7.0   WNW    9.1    9.7    9.0  1023.4  0.00  0.00   0.030   0.000   24.2    39    9.3   23.7   7.54  .0740    117    1    100.0    5 
14/11/17   7:50    9.8    9.8    9.7    79    6.3   4.0   WNW   0.33   7.0   WNW    9.1    9.7    9.1  1023.5  0.00  0.00   0.030   0.000   24.2    39    9.3   23.7   7.54  .0740    117    1    100.0    5 
14/11/17   7:55    9.9    9.9    9.8    79    6.4   4.0   WNW   0.33   7.0   WNW    9.3    9.8    9.2  1023.6  0.00  0.00   0.029   0.000   24.2    39    9.3   23.7   7.54  .0741    117    1    100.0    5 
14/11/17   8:00    9.8    9.8    9.7    79    6.3   5.0   WNW   0.42   8.0   WNW    8.7    9.7    8.7  1023.6  0.00  0.00   0.030   0.000   24.2    39    9.3   23.7   7.54  .0741    116    1    100.0    5 
14/11/17   8:05    9.8    9.8    9.7    79    6.3   4.0   WNW   0.33   8.0   WNW    9.1    9.7    9.1  1023.6  0.00  0.00   0.030   0.000   24.2    39    9.3   23.7   7.54  .0741    117    1    100.0    5 
14/11/17   8:10    9.8    9.8    9.8    79    6.3   4.0   WNW   0.33   7.0   WNW    9.1    9.7    9.1  1023.6  0.00  0.00   0.030   0.000   24.2    39    9.4   23.7   7.54  .0740    116    1    100.0    5 
14/11/17   8:15    9.8    9.8    9.8    79    6.4   3.0   WNW   0.25   7.0   WNW    9.6    9.8    9.6  1023.5  0.00  0.00   0.030   0.000   24.2    39    9.4   23.7   7.54  .0740    117    1    100.0    5 
14/11/17   8:20    9.9    9.9    9.8    79    6.5   4.0   WNW   0.33   6.0   WNW    9.3    9.9    9.3  1023.6  0.00  0.00   0.029   0.000   24.2    39    9.4   23.7   7.54  .0740    116    1    100.0    5 
14/11/17   8:25    9.9    9.9    9.9    79    6.4   4.0   WNW   0.33   7.0   WNW    9.3    9.8    9.2  1023.6  0.00  0.00   0.029   0.000   24.3    39    9.4   23.8   7.54  .0740    118    1    100.0    5 
14/11/17   8:30    9.7    9.9    9.7    79    6.3   4.0     W   0.33   8.0     W    9.1    9.7    9.0  1023.5  0.00  0.00   0.030   0.000   24.2    39    9.4   23.7   7.54  .0740    116    1    100.0    5 
14/11/17   8:35    9.6    9.7    9.6    79    6.1   5.0     W   0.42   8.0     W    8.4    9.5    8.4  1023.5  0.00  0.00   0.030   0.000   24.2    39    9.4   23.7   7.54  .0740    117    1    100.0    5 
14/11/17   8:40    9.4    9.6    9.4    79    6.0   5.0     W   0.42   8.0     W    8.3    9.4    8.3  1023.5  0.00  0.00   0.031   0.000   24.2    39    9.4   23.7   7.54  .0740    117    1    100.0    5 
14/11/17   8:45    9.4    9.4    9.4    80    6.2   5.0     W   0.42   8.0     W    8.3    9.4    8.3  1023.6  0.00  0.00   0.031   0.000   24.3    39    9.4   23.8   7.54  .0740    117    1    100.0    5 
14/11/17   8:50    9.4    9.4    9.4    80    6.2   5.0   WSW   0.42   9.0   WSW    8.3    9.4    8.3  1023.6  0.00  0.00   0.031   0.000   24.2    39    9.4   23.7   7.54  .0740    115    1    100.0    5 
14/11/17   8:55    9.6    9.6    9.4    81    6.5   6.0   WSW   0.50  10.0   WSW    8.2    9.6    8.2  1023.6  0.00  0.00   0.030   0.000   24.3    39    9.4   23.8   7.54  .0740    116    1    100.0    5 
14/11/17   9:00    9.7    9.7    9.6    82    6.8   7.0   WSW   0.58  11.0   WSW    8.1    9.7    8.1  1023.6  0.00  0.00   0.030   0.000   24.3    41   10.2   23.8   7.75  .0740    116    1    100.0    5 
14/11/17   9:05    9.8    9.8    9.7    82    6.9   6.0   WSW   0.50  10.0   WSW    8.5    9.8    8.5  1023.5  0.00  0.00   0.030   0.000   24.3    41   10.2   23.9   7.75  .0740    117    1    100.0    5 
14/11/17   9:10    9.9    9.9    9.8    83    7.2   7.0   WSW   0.58  10.0   WSW    8.4   10.0    8.4  1023.6  0.00  0.00   0.029   0.000   24.3    41   10.2   23.9   7.75  .0740    117    1    100.0    5 
14/11/17   9:15   10.1   10.1    9.9    84    7.5   7.0   WSW   0.58  11.0   WSW    8.5   10.1    8.6  1023.6  0.00  0.00   0.029   0.000   24.3    40    9.9   23.8   7.63  .0740    117    1    100.0    5 
14/11/17   9:20   10.2   10.2   10.1    84    7.6   7.0     W   0.58  11.0     W    8.7   10.2    8.7  1023.6  0.00  0.00   0.028   0.000   24.4    40    9.9   23.9   7.63  .0740    116    1    100.0    5 
14/11/17   9:25   10.3   10.3   10.2    84    7.7   8.0     W   0.67  12.0   WSW    8.4   10.3    8.4  1023.5  0.00  0.00   0.028   0.000   24.4    40    9.9   23.9   7.63  .0740    117    1    100.0    5 
14/11/17   9:30   10.5   10.5   10.3    84    7.9  10.0   WSW   0.83  14.0   WSW    8.0   10.5    8.0  1023.5  0.00  0.00   0.027   0.000   24.4    40    9.9   23.9   7.63  .0740    118    1    100.0    5 
14/11/17   9:35   10.8   10.8   10.5    84    8.2   9.0   WSW   0.75  15.0   WSW    8.7   10.8    8.7  1023.5  0.00  0.00   0.026   0.000   24.4    40    9.9   23.9   7.63  .0740    116    1    100.0    5 
14/11/17   9:40   11.1   11.1   10.9    83    8.3   9.0   WSW   0.75  15.0   WSW    9.0   11.1    8.9  1023.6  0.00  0.00   0.025   0.000   24.4    40   10.0   23.9   7.63  .0740    117    1    100.0    5 
14/11/17   9:45   11.2   11.2   11.1    83    8.4   8.0     W   0.67  15.0     W    9.5   11.2    9.4  1023.6  0.00  0.00   0.025   0.000   24.4    40   10.0   23.9   7.63  .0740    117    1    100.0    5 
14/11/17   9:50   11.2   11.3   11.2    82    8.3   9.0     W   0.75  14.0     W    9.1   11.2    9.1  1023.7  0.00  0.00   0.025   0.000   24.4    40   10.0   23.9   7.63  .0740    116    1    100.0    5 
14/11/17   9:55   11.1   11.2   11.1    82    8.2   9.0     W   0.75  15.0     W    9.0   11.1    8.9  1023.7  0.00  0.00   0.025   0.000   24.4    40   10.0   23.9   7.63  .0740    117    1    100.0    5 
14/11/17  10:00   11.1   11.1   11.1    82    8.1  10.0   WSW   0.83  17.0   WSW    8.6   11.0    8.6  1023.7  0.00  0.00   0.025   0.000   24.5    40   10.0   24.0   7.63  .0739    117    1    100.0    5 
14/11/17  10:05   11.1   11.1   11.1    82    8.2  10.0     W   0.83  16.0     W    8.7   11.1    8.6  1023.7  0.00  0.00   0.025   0.000   24.4    40   10.0   23.9   7.63  .0740    116    1    100.0    5 
14/11/17  10:10   11.2   11.2   11.1    82    8.3   9.0     W   0.75  14.0   WSW    9.1   11.2    9.1  1023.7  0.00  0.00   0.025   0.000   24.4    39    9.6   23.9   7.53  .0740    117    1    100.0    5 
14/11/17  10:15   11.3   11.3   11.2    82    8.4   7.0     W   0.58  13.0     W   10.1   11.2    9.9  1023.7  0.00  0.00   0.024   0.000   24.4    39    9.6   23.9   7.53  .0740    117    1    100.0    5 
14/11/17  10:20   11.3   11.3   11.3    82    8.4   9.0     W   0.75  13.0   WNW    9.3   11.2    9.2  1023.8  0.00  0.00   0.024   0.000   24.5    39    9.6   24.0   7.53  .0740    116    1    100.0    5 
14/11/17  10:25   11.4   11.4   11.3    82    8.4   7.0     W   0.58  13.0     W   10.1   11.3   10.0  1023.7  0.00  0.00   0.024   0.000   24.4    39    9.6   23.9   7.53  .0740    117    1    100.0    5 
14/11/17  10:30   11.4   11.4   11.4    82    8.4   8.0     W   0.67  15.0     W    9.7   11.3    9.6  1023.7  0.00  0.00   0.024   0.000   24.5    39    9.6   24.0   7.53  .0740    117    1    100.0    5 
14/11/17  10:35   11.4   11.4   11.4    82    8.4   7.0     W   0.58  12.0   WNW   10.1   11.3   10.0  1023.7  0.00  0.00   0.024   0.000   24.5    39    9.6   24.0   7.53  .0740    118    1    100.0    5 
14/11/17  10:40   11.4   11.4   11.4    82    8.4   9.0     W   0.75  16.0   WNW    9.3   11.3    9.2  1023.8  0.00  0.00   0.024   0.000   24.5    39    9.6   24.0   7.53  .0740    117    1    100.0    5 
14/11/17  10:45   11.4   11.4   11.3    82    8.4   9.0     W   0.75  14.0   WSW    9.3   11.3    9.2  1023.7  0.00  0.00   0.024   0.000   24.5    39    9.6   24.0   7.53  .0740    117    1    100.0    5 
14/11/17  10:50   11.4   11.4   11.3    82    8.4   8.0     W   0.67  11.0     W    9.7   11.3    9.6  1023.6  0.00  0.00   0.024   0.000   24.5    39    9.6   24.0   7.53  .0740    116    1    100.0    5 
14/11/17  10:55   11.4   11.4   11.4    83    8.7   6.0     W   0.50  15.0     W   10.4   11.4   10.3  1023.6  0.00  0.00   0.024   0.000   24.4    39    9.6   23.9   7.53  .0740    117    1    100.0    5 
14/11/17  11:00   11.4   11.5   11.4    82    8.5  11.0     W   0.92  16.0     W    8.8   11.3    8.7  1023.6  0.00  0.00   0.024   0.000   24.5    40   10.0   24.0   7.63  .0739    116    1    100.0    5 
14/11/17  11:05   11.4   11.4   11.4    83    8.7   8.0     W   0.67  13.0     W    9.8   11.4    9.7  1023.6  0.00  0.00   0.024   0.000   24.5    40   10.0   24.0   7.63  .0739    117    1    100.0    5 
14/11/17  11:10   11.5   11.6   11.4    83    8.7   7.0     W   0.58  18.0   WSW   10.2   11.4   10.1  1023.6  0.00  0.00   0.024   0.000   24.5    40   10.0   24.0   7.63  .0739    117    1    100.0    5 
14/11/17  11:15   11.5   11.6   11.5    83    8.7  11.0     W   0.92  19.0   WSW    8.8   11.4    8.7  1023.6  0.00  0.00   0.024   0.000   24.6    40   10.1   24.1   7.63  .0739    117    1    100.0    5 
14/11/17  11:20   11.4   11.5   11.4    83    8.7   8.0     W   0.67  12.0     W    9.8   11.4    9.7  1023.6  0.00  0.00   0.024   0.000   24.6    41   10.4   24.1   7.75  .0739    117    1    100.0    5 
14/11/17  11:25   11.4   11.4   11.4    83    8.7   8.0     W   0.67  13.0   WSW    9.8   11.4    9.7  1023.7  0.00  0.00   0.024   0.000   24.6    43   11.1   24.2   8.05  .0739    117    1    100.0    5 
14/11/17  11:30   11.4   11.4   11.4    83    8.7   8.0     W   0.67  15.0   WSW    9.8   11.4    9.7  1023.7  0.00  0.00   0.024   0.000   24.6    43   11.2   24.3   8.05  .0738    117    1    100.0    5 
14/11/17  11:35   11.4   11.4   11.4    83    8.6   9.0     W   0.75  14.0   WSW    9.3   11.3    9.3  1023.7  0.00  0.00   0.024   0.000   24.7    43   11.2   24.3   8.05  .0738    117    1    100.0    5 
14/11/17  11:40   11.3   11.4   11.3    84    8.7   8.0   WSW   0.67  14.0   WSW    9.7   11.3    9.6  1023.8  0.00  0.00   0.024   0.000   24.7    43   11.2   24.3   8.05  .0738    117    1    100.0    5 
14/11/17  11:45   11.4   11.4   11.3    84    8.8   7.0     W   0.58  14.0   WSW   10.1   11.3   10.1  1023.8  0.00  0.00   0.024   0.000   24.7    42   10.9   24.3   7.92  .0739    117    1    100.0    5 
14/11/17  11:50   11.4   11.4   11.4    84    8.8   9.0     W   0.75  13.0     W    9.3   11.3    9.3  1023.7  0.00  0.00   0.024   0.000   24.7    42   10.9   24.3   7.92  .0738    116    1    100.0    5 
14/11/17  11:55   11.4   11.4   11.4    84    8.8   8.0     W   0.67  11.0   WSW    9.8   11.4    9.7  1023.7  0.00  0.00   0.024   0.000   24.7    42   10.9   24.3   7.92  .0738    117    1    100.0    5 
14/11/17  12:00   11.4   11.4   11.4    84    8.8   8.0     W   0.67  12.0   WSW    9.8   11.4    9.7  1023.7  0.00  0.00   0.024   0.000   24.6    41   10.5   24.2   7.75  .0739    116    1    100.0    5 
14/11/17  12:05   11.5   11.5   11.4    84    8.9   8.0     W   0.67  15.0   WSW    9.8   11.4    9.8  1023.7  0.00  0.00   0.024   0.000   24.6    41   10.5   24.2   7.75  .0739    115    1    100.0    5 
14/11/17  12:10   11.6   11.6   11.5    84    8.9   7.0   WSW   0.58  11.0     W   10.3   11.5   10.3  1023.6  0.00  0.00   0.024   0.000   24.6    41   10.5   24.2   7.75  .0739    116    1    100.0    5 
14/11/17  12:15   11.6   11.6   11.6    84    8.9   6.0     W   0.50  11.0     W   10.6   11.5   10.5  1023.6  0.00  0.00   0.024   0.000   24.6    41   10.5   24.2   7.75  .0739    117    1    100.0    5 
14/11/17  12:20   11.6   11.6   11.6    83    8.8   7.0   WSW   0.58  13.0     W   10.3   11.4   10.2  1023.6  0.00  0.00   0.024   0.000   24.6    41   10.5   24.2   7.75  .0739    117    1    100.0    5 
14/11/17  12:25   11.5   11.6   11.5    83    8.7   8.0     W   0.67  13.0   WSW    9.8   11.4    9.7  1023.6  0.00  0.00   0.024   0.000   24.6    41   10.5   24.2   7.75  .0739    117    1    100.0    5 
14/11/17  12:30   11.5   11.6   11.5    83    8.7   7.0     W   0.58  10.0   WSW   10.2   11.4   10.1  1023.6  0.00  0.00   0.024   0.000   24.6    41   10.5   24.2   7.75  .0739    116    1    100.0    5 
14/11/17  12:35   11.6   11.6   11.5    83    8.8   7.0     W   0.58  12.0     W   10.3   11.4   10.2  1023.5  0.00  0.00   0.024   0.000   24.6    41   10.5   24.2   7.75  .0739    117    1    100.0    5 
14/11/17  12:40   11.6   11.6   11.6    83    8.8   8.0     W   0.67  14.0   WSW    9.9   11.4    9.8  1023.5  0.00  0.00   0.024   0.000   24.6    41   10.4   24.1   7.75  .0739    118    1    100.0    5 
14/11/17  12:45   11.6   11.6   11.6    83    8.8   8.0     W   0.67  13.0     W   10.0   11.5    9.9  1023.5  0.00  0.00   0.023   0.000   24.6    41   10.4   24.1   7.75  .0739    117    1    100.0    5 
14/11/17  12:50   11.7   11.7   11.6    83    8.9   6.0     W   0.50  11.0     W   10.7   11.6   10.6  1023.4  0.00  0.00   0.023   0.000   24.6    41   10.4   24.1   7.75  .0739    117    1    100.0    5 
14/11/17  12:55   11.7   11.7   11.7    82    8.7   6.0     W   0.50  11.0   WNW   10.7   11.6   10.6  1023.5  0.00  0.00   0.023   0.000   24.6    41   10.4   24.1   7.75  .0739    116    1    100.0    5 
14/11/17  13:00   11.8   11.8   11.7    82    8.8   5.0     W   0.42  10.0     W   11.1   11.7   10.9  1023.4  0.00  0.00   0.023   0.000   24.6    41   10.5   24.2   7.75  .0739    117    1    100.0    5 
14/11/17  13:05   11.8   11.8   11.8    82    8.8   5.0     W   0.42   9.0     W   11.1   11.7   10.9  1023.4  0.00  0.00   0.023   0.000   24.6    41   10.5   24.2   7.75  .0739    116    1    100.0    5 
14/11/17  13:10   11.7   11.8   11.7    83    8.9   5.0     W   0.42   7.0     W   11.0   11.6   10.9  1023.4  0.00  0.00   0.023   0.000   24.6    41   10.5   24.2   7.75  .0739    117    1    100.0    5 
14/11/17  13:15   11.6   11.7   11.6    83    8.8   5.0   WSW   0.42   6.0   WSW   10.9   11.5   10.8  1023.4  0.00  0.00   0.023   0.000   24.6    41   10.5   24.2   7.75  .0739    115    1    100.0    5 
14/11/17  13:20   11.4   11.6   11.4    84    8.8   5.0   WSW   0.42   7.0   WSW   10.7   11.4   10.7  1023.4  0.00  0.00   0.024   0.000   24.6    41   10.5   24.2   7.75  .0739    114    1    100.0    5 
14/11/17  13:25   11.3   11.4   11.3    84    8.7   5.0   WSW   0.42   7.0   WSW   10.6   11.3   10.5  1023.4  0.00  0.00   0.024   0.000   24.6    41   10.5   24.2   7.75  .0739    117    1    100.0    5 
14/11/17  13:30   11.3   11.3   11.3    85    8.8   5.0   WSW   0.42   9.0   WSW   10.5   11.3   10.5  1023.3  0.00  0.00   0.024   0.000   24.6    41   10.5   24.2   7.75  .0739    117    1    100.0    5 
14/11/17  13:35   11.2   11.3   11.2    85    8.8   6.0   WSW   0.50   9.0   WSW   10.1   11.2   10.1  1023.4  0.00  0.00   0.025   0.000   24.6    41   10.4   24.1   7.75  .0739    116    1    100.0    5 
14/11/17  13:40   11.2   11.2   11.2    85    8.7   5.0   WSW   0.42   8.0   WSW   10.4   11.2   10.4  1023.4  0.00  0.00   0.025   0.000   24.6    41   10.4   24.1   7.75  .0739    117    1    100.0    5 
14/11/17  13:45   11.3   11.3   11.2    85    8.8   6.0     W   0.50   8.0   WSW   10.2   11.3   10.2  1023.3  0.00  0.00   0.024   0.000   24.6    41   10.5   24.2   7.75  .0739    117    1    100.0    5 
14/11/17  13:50   11.3   11.3   11.3    85    8.9   5.0   WSW   0.42   8.0     W   10.6   11.3   10.6  1023.3  0.00  0.00   0.024   0.000   24.6    41   10.4   24.1   7.75  .0739    115    1    100.0    5 
14/11/17  13:55   11.4   11.4   11.3    85    9.0   6.0     W   0.50  10.0     W   10.4   11.4   10.3  1023.3  0.00  0.00   0.024   0.000   24.6    41   10.4   24.1   7.75  .0739    117    1    100.0    5 
14/11/17  14:00   11.4   11.5   11.4    85    9.0   6.0   WSW   0.50  10.0   WSW   10.4   11.4   10.3  1023.3  0.00  0.00   0.024   0.000   24.6    41   10.4   24.1   7.75  .0739    117    1    100.0    5 
14/11/17  14:05   11.5   11.5   11.4    84    8.9   6.0   WSW   0.50  10.0     W   10.4   11.4   10.4  1023.2  0.00  0.00   0.024   0.000   24.6    41   10.4   24.1   7.75  .0739    116    1    100.0    5 
14/11/17  14:10   11.5   11.5   11.5    84    8.9   7.0   WSW   0.58  11.0   WSW   10.2   11.4   10.2  1023.2  0.00  0.00   0.024   0.000   24.6    41   10.4   24.1   7.75  .0739    116    1    100.0    5 
14/11/17  14:15   11.6   11.6   11.5    84    8.9   5.0     W   0.42  10.0   WSW   10.8   11.5   10.8  1023.1  0.00  0.00   0.024   0.000   24.5    41   10.4   24.1   7.75  .0739    117    1    100.0    5 
14/11/17  14:20   11.6   11.6   11.6    84    8.9   6.0     W   0.50  11.0   WSW   10.6   11.5   10.5  1023.1  0.00  0.00   0.024   0.000   24.5    41   10.4   24.1   7.75  .0739    116    1    100.0    5 
14/11/17  14:25   11.7   11.7   11.6    84    9.1   5.0     W   0.42   9.0     W   10.9   11.6   10.9  1023.2  0.00  0.00   0.023   0.000   24.5    41   10.4   24.1   7.75  .0739    117    1    100.0    5 
14/11/17  14:30   11.7   11.7   11.6    84    9.1   7.0     W   0.58  11.0     W   10.4   11.6   10.4  1023.1  0.00  0.00   0.023   0.000   24.5    41   10.4   24.1   7.75  .0739    116    1    100.0    5 
14/11/17  14:35   11.7   11.7   11.7    84    9.1   5.0     W   0.42   9.0     W   11.0   11.7   10.9  1023.1  0.00  0.00   0.023   0.000   24.5    41   10.4   24.1   7.75  .0739    117    1    100.0    5 
14/11/17  14:40   11.7   11.7   11.7    83    8.9   5.0     W   0.42   8.0     W   11.0   11.6   10.9  1023.1  0.00  0.00   0.023   0.000   24.5    41   10.4   24.1   7.75  .0739    117    1    100.0    5 
14/11/17  14:45   11.8   11.8   11.7    83    9.0   5.0   WNW   0.42   9.0   WNW   11.1   11.7   10.9  1023.0  0.00  0.00   0.023   0.000   24.5    41   10.4   24.1   7.75  .0739    116    1    100.0    5 
14/11/17  14:50   11.8   11.8   11.8    83    9.0   6.0     W   0.50  10.0   WSW   10.8   11.7   10.7  1023.0  0.00  0.00   0.023   0.000   24.5    41   10.4   24.1   7.75  .0739    117    1    100.0    5 
14/11/17  14:55   11.8   11.8   11.8    83    9.0   7.0     W   0.58  12.0     W   10.6   11.7   10.4  1023.1  0.00  0.00   0.023   0.000   24.5    41   10.4   24.1   7.75  .0739    116    1    100.0    5 
14/11/17  15:00   11.8   11.8   11.8    83    9.0   7.0     W   0.58  11.0     W   10.6   11.7   10.4  1023.1  0.00  0.00   0.023   0.000   24.5    41   10.4   24.1   7.75  .0739    114    1    100.0    5 
14/11/17  15:05   11.8   11.8   11.8    83    9.0   6.0     W   0.50  10.0     W   10.8   11.7   10.7  1023.1  0.00  0.00   0.023   0.000   24.4    41   10.3   24.0   7.75  .0739    116    1    100.0    5 
14/11/17  15:10   11.8   11.8   11.8    83    9.0   4.0     W   0.33   8.0     W   11.4   11.7   11.3  1023.1  0.00  0.00   0.023   0.000   24.4    41   10.3   24.0   7.75  .0739    116    1    100.0    5 
14/11/17  15:15   11.8   11.8   11.8    83    9.0   5.0     W   0.42  10.0     W   11.1   11.7   10.9  1023.0  0.00  0.00   0.023   0.000   24.4    41   10.3   24.0   7.75  .0739    115    1    100.0    5 
14/11/17  15:20   11.7   11.8   11.7    83    8.9   5.0     W   0.42   9.0     W   11.0   11.6   10.9  1023.0  0.00  0.00   0.023   0.000   24.4    41   10.3   23.9   7.75  .0739    116    1    100.0    5 
14/11/17  15:25   11.7   11.8   11.7    83    8.9   4.0     W   0.33   8.0     W   11.3   11.6   11.2  1023.0  0.00  0.00   0.023   0.000   24.4    41   10.3   23.9   7.75  .0739    117    1    100.0    5 
14/11/17  15:30   11.7   11.7   11.7    83    8.9   4.0     W   0.33   8.0     W   11.3   11.6   11.2  1023.1  0.00  0.00   0.023   0.000   24.4    41   10.3   23.9   7.75  .0739    116    1    100.0    5 
14/11/17  15:35   11.7   11.7   11.7    83    8.9   6.0     W   0.50  10.0   WNW   10.7   11.6   10.6  1023.0  0.00  0.00   0.023   0.000   24.4    41   10.3   23.9   7.75  .0739    117    1    100.0    5 
14/11/17  15:40   11.7   11.7   11.7    83    8.9   4.0     W   0.33   7.0     W   11.3   11.6   11.2  1023.1  0.00  0.00   0.023   0.000   24.4    41   10.3   24.0   7.75  .0739    117    1    100.0    5 
14/11/17  15:45   11.7   11.7   11.7    83    8.9   6.0     W   0.50   9.0   WNW   10.7   11.6   10.6  1023.1  0.00  0.00   0.023   0.000   24.4    41   10.3   23.9   7.75  .0739    117    1    100.0    5 
14/11/17  15:50   11.7   11.7   11.7    84    9.1   4.0     W   0.33   9.0     W   11.3   11.6   11.2  1023.0  0.00  0.00   0.023   0.000   24.4    41   10.3   23.9   7.75  .0739    118    1    100.0    5 
14/11/17  15:55   11.6   11.7   11.6    84    9.0   4.0     W   0.33   7.0     W   11.2   11.6   11.2  1023.0  0.00  0.00   0.023   0.000   24.4    41   10.3   23.9   7.75  .0739    116    1    100.0    5 
14/11/17  16:00   11.5   11.6   11.5    84    8.9   3.0     W   0.25   6.0     W   11.5   11.4   11.4  1023.0  0.00  0.00   0.024   0.000   24.4    41   10.3   23.9   7.75  .0739    117    1    100.0    5 
14/11/17  16:05   11.4   11.5   11.4    85    9.0   1.0     W   0.08   5.0     W   11.4   11.4   11.4  1023.0  0.00  0.00   0.024   0.000   24.4    41   10.3   23.9   7.75  .0739    117    1    100.0    5 
14/11/17  16:10   11.4   11.5   11.4    85    9.0   3.0     W   0.25   5.0     W   11.4   11.4   11.4  1023.1  0.00  0.00   0.024   0.000   24.3    41   10.2   23.9   7.75  .0739    115    1    100.0    5 
14/11/17  16:15   11.4   11.4   11.3    85    9.0   3.0     W   0.25   5.0     W   11.4   11.4   11.4  1023.1  0.00  0.00   0.024   0.000   24.3    41   10.2   23.9   7.75  .0739    116    1    100.0    5 
14/11/17  16:20   11.3   11.4   11.3    85    8.9   3.0     W   0.25   5.0     W   11.3   11.3   11.3  1023.1  0.00  0.00   0.024   0.000   24.3    41   10.2   23.9   7.75  .0739    116    1    100.0    5 
14/11/17  16:25   11.3   11.3   11.3    86    9.0   3.0     W   0.25   5.0     W   11.2   11.3   11.2  1023.1  0.00  0.00   0.024   0.000   24.3    41   10.2   23.9   7.75  .0739    115    1    100.0    5 
14/11/17  16:30   11.2   11.3   11.2    86    9.0   3.0     W   0.25   5.0     W   11.2   11.2   11.2  1023.1  0.00  0.00   0.025   0.000   24.3    41   10.2   23.8   7.75  .0739    116    1    100.0    5 
14/11/17  16:35   11.2   11.3   11.2    86    9.0   3.0     W   0.25   4.0     W   11.2   11.2   11.2  1023.2  0.00  0.00   0.025   0.000   24.3    41   10.2   23.8   7.75  .0739    113    1     99.1    5 
14/11/17  16:40   11.2   11.2   11.2    86    8.9   2.0     W   0.17   4.0     W   11.2   11.2   11.2  1023.1  0.00  0.00   0.025   0.000   24.3    41   10.2   23.8   7.75  .0739    114    1    100.0    5 
14/11/17  16:45   11.1   11.2   11.1    86    8.8   3.0     W   0.25   5.0     W   11.0   11.1   11.0  1023.2  0.00  0.00   0.025   0.000   24.3    41   10.2   23.8   7.75  .0739    117    1    100.0    5 
14/11/17  16:50   11.1   11.1   11.1    87    9.0   4.0     W   0.33   6.0     W   10.6   11.1   10.7  1023.2  0.00  0.00   0.025   0.000   24.3    41   10.2   23.8   7.75  .0739    117    1    100.0    5 
14/11/17  16:55   11.0   11.1   11.0    87    8.9   4.0     W   0.33   6.0     W   10.6   11.1   10.6  1023.2  0.00  0.00   0.025   0.000   24.3    41   10.2   23.8   7.75  .0739    118    1    100.0    5 
14/11/17  17:00   10.9   11.0   10.9    87    8.9   4.0     W   0.33   6.0     W   10.4   11.0   10.5  1023.3  0.00  0.00   0.026   0.000   24.2    41   10.1   23.8   7.75  .0740    115    1    100.0    5 
14/11/17  17:05   10.9   10.9   10.9    87    8.9   4.0     W   0.33   6.0     W   10.4   11.0   10.5  1023.3  0.00  0.00   0.026   0.000   24.2    41   10.1   23.8   7.75  .0740    115    1    100.0    5 
14/11/17  17:10   10.9   10.9   10.9    88    9.0   4.0     W   0.33   6.0     W   10.4   11.0   10.5  1023.4  0.00  0.00   0.026   0.000   24.2    41   10.1   23.8   7.75  .0740    116    1    100.0    5 
14/11/17  17:15   10.9   10.9   10.9    88    9.0   4.0     W   0.33   7.0     W   10.4   11.0   10.5  1023.4  0.00  0.00   0.026   0.000   24.2    41   10.1   23.8   7.75  .0740    117    1    100.0    5 
14/11/17  17:20   10.9   10.9   10.9    88    9.0   5.0   WSW   0.42   8.0     W   10.1   11.0   10.2  1023.4  0.00  0.00   0.026   0.000   24.2    41   10.1   23.8   7.75  .0740    117    1    100.0    5 
14/11/17  17:25   10.9   11.0   10.9    88    9.0   6.0   WSW   0.50   9.0   WSW    9.8   11.0    9.9  1023.4  0.00  0.00   0.026   0.000   24.2    41   10.1   23.8   7.75  .0740    116    1    100.0    5 
14/11/17  17:30   11.0   11.0   11.0    88    9.1   6.0   WSW   0.50   8.0   WSW    9.9   11.1    9.9  1023.4  0.00  0.00   0.025   0.000   24.2    41   10.1   23.8   7.75  .0740    115    1    100.0    5 
14/11/17  17:35   11.0   11.0   11.0    88    9.1   5.0     W   0.42   8.0     W   10.2   11.1   10.3  1023.4  0.00  0.00   0.025   0.000   24.2    41   10.1   23.8   7.75  .0740    116    1    100.0    5 
14/11/17  17:40   11.1   11.1   11.0    88    9.1   6.0     W   0.50   9.0     W    9.9   11.1   10.0  1023.4  0.00  0.00   0.025   0.000   24.2    41   10.1   23.8   7.75  .0740    116    1    100.0    5 
14/11/17  17:45   11.1   11.1   11.1    88    9.1   7.0   WSW   0.58  12.0   WSW    9.7   11.1    9.8  1023.4  0.00  0.00   0.025   0.000   24.2    41   10.1   23.8   7.75  .0740    117    1    100.0    5 
14/11/17  17:50   11.1   11.1   11.1    88    9.2   6.0   WSW   0.50  11.0   WSW   10.0   11.2   10.1  1023.4  0.00  0.00   0.025   0.000   24.2    41   10.1   23.8   7.75  .0740    115    1    100.0    5 
14/11/17  17:55   11.1   11.1   11.1    88    9.2   5.0     W   0.42   9.0     W   10.3   11.2   10.4  1023.4  0.00  0.00   0.025   0.000   24.2    41   10.1   23.8   7.75  .0740    116    1    100.0    5 
14/11/17  18:00   11.1   11.2   11.1    88    9.2   5.0     W   0.42   8.0     W   10.3   11.2   10.4  1023.4  0.00  0.00   0.025   0.000   24.2    41   10.1   23.8   7.75  .0740    118    1    100.0    5 
14/11/17  18:05   11.2   11.2   11.1    88    9.3   4.0     W   0.33   8.0     W   10.7   11.2   10.8  1023.5  0.00  0.00   0.025   0.000   24.2    41   10.1   23.8   7.75  .0740    117    1    100.0    5 
14/11/17  18:10   11.2   11.2   11.2    89    9.4   5.0   WSW   0.42   8.0   WSW   10.4   11.3   10.5  1023.4  0.00  0.00   0.025   0.000   24.2    42   10.4   23.8   7.94  .0740    115    1    100.0    5 
14/11/17  18:15   11.2   11.2   11.2    89    9.4   5.0     W   0.42   8.0   WSW   10.4   11.3   10.5  1023.4  0.00  0.00   0.025   0.000   24.2    42   10.4   23.8   7.94  .0740    117    1    100.0    5 
14/11/17  18:20   11.2   11.2   11.2    89    9.4   6.0     W   0.50   9.0     W   10.1   11.3   10.2  1023.3  0.00  0.00   0.025   0.000   24.2    42   10.5   23.8   7.94  .0740    117    1    100.0    5 
14/11/17  18:25   11.2   11.2   11.2    89    9.4   5.0     W   0.42   8.0     W   10.4   11.3   10.5  1023.3  0.00  0.00   0.025   0.000   24.2    42   10.5   23.8   7.94  .0740    115    1    100.0    5 
14/11/17  18:30   11.1   11.2   11.1    89    9.4   5.0   WSW   0.42   9.0     W   10.3   11.2   10.4  1023.3  0.00  0.00   0.025   0.000   24.3    43   10.9   23.9   8.05  .0739    117    1    100.0    5 
14/11/17  18:35   11.1   11.1   11.1    89    9.3   6.0     W   0.50  10.0     W    9.9   11.2   10.1  1023.4  0.00  0.00   0.025   0.000   24.3    43   10.9   23.9   8.05  .0739    116    1    100.0    5 
14/11/17  18:40   11.1   11.1   11.1    89    9.3   5.0     W   0.42   8.0     W   10.3   11.2   10.4  1023.4  0.00  0.00   0.025   0.000   24.3    43   10.9   24.0   8.05  .0739    116    1    100.0    5 
14/11/17  18:45   11.1   11.1   11.1    89    9.3   5.0     W   0.42  10.0     W   10.3   11.2   10.4  1023.4  0.00  0.00   0.025   0.000   24.3    43   10.9   24.0   8.05  .0739    116    1    100.0    5 
14/11/17  18:50   11.1   11.1   11.0    89    9.3   6.0     W   0.50   9.0   WSW    9.9   11.2   10.1  1023.4  0.00  0.00   0.025   0.000   24.4    43   11.0   24.1   8.05  .0739    114    1    100.0    5 
14/11/17  18:55   11.1   11.1   11.1    89    9.3   6.0     W   0.50   9.0     W    9.9   11.2   10.1  1023.4  0.00  0.00   0.025   0.000   24.4    43   11.0   24.1   8.05  .0739    116    1    100.0    5 
14/11/17  19:00   11.1   11.1   11.1    89    9.3   5.0     W   0.42   8.0     W   10.3   11.2   10.4  1023.3  0.00  0.00   0.025   0.000   24.4    43   11.0   24.1   8.05  .0739    116    1    100.0    5 
14/11/17  19:05   11.1   11.1   11.1    89    9.3   4.0     W   0.33   8.0     W   10.6   11.2   10.7  1023.4  0.00  0.00   0.025   0.000   24.4    43   11.0   24.1   8.05  .0739    118    1    100.0    5 
14/11/17  19:10   11.1   11.1   11.1    89    9.3   4.0     W   0.33   9.0     W   10.6   11.2   10.7  1023.4  0.00  0.00   0.025   0.000   24.4    43   11.0   24.1   8.05  .0739    117    1    100.0    5 
14/11/17  19:15   11.1   11.1   11.1    89    9.3   4.0     W   0.33   8.0     W   10.6   11.2   10.7  1023.4  0.00  0.00   0.025   0.000   24.4    43   11.0   24.1   8.05  .0739    116    1    100.0    5 
14/11/17  19:20   11.1   11.1   11.1    89    9.3   5.0     W   0.42   9.0     W   10.3   11.2   10.4  1023.4  0.00  0.00   0.025   0.000   24.4    43   11.0   24.1   8.05  .0739    115    1    100.0    5 
14/11/17  19:25   11.1   11.1   11.1    89    9.3   5.0     W   0.42   8.0     W   10.3   11.2   10.4  1023.4  0.00  0.00   0.025   0.000   24.4    43   11.0   24.1   8.05  .0739    116    1    100.0    5 
14/11/17  19:30   11.1   11.1   11.1    89    9.4   5.0     W   0.42   8.0     W   10.3   11.2   10.4  1023.4  0.00  0.00   0.025   0.000   24.5    43   11.1   24.2   8.05  .0739    117    1    100.0    5 
14/11/17  19:35   11.1   11.1   11.1    88    9.2   5.0     W   0.42   8.0     W   10.3   11.2   10.4  1023.4  0.00  0.00   0.025   0.000   24.5    43   11.1   24.2   8.05  .0738    115    1    100.0    5 
14/11/17  19:40   11.1   11.1   11.1    88    9.1   4.0   WSW   0.33   7.0   WSW   10.6   11.1   10.7  1023.4  0.00  0.00   0.025   0.000   24.5    43   11.1   24.2   8.05  .0738    116    1    100.0    5 
14/11/17  19:45   11.1   11.1   11.1    88    9.1   4.0   WSW   0.33   6.0   WSW   10.6   11.1   10.7  1023.4  0.00  0.00   0.025   0.000   24.6    43   11.1   24.2   8.05  .0738    117    1    100.0    5 
14/11/17  19:50   11.0   11.1   11.0    88    9.1   4.0   WSW   0.33   6.0   WSW   10.6   11.1   10.6  1023.4  0.00  0.00   0.025   0.000   24.6    43   11.1   24.2   8.05  .0738    116    1    100.0    5 
14/11/17  19:55   10.9   11.0   10.9    88    9.0   4.0   WSW   0.33   7.0   WSW   10.4   11.0   10.5  1023.5  0.00  0.00   0.026   0.000   24.6    43   11.1   24.2   8.05  .0738    117    1    100.0    5 
14/11/17  20:00   10.9   10.9   10.9    88    9.0   4.0   WSW   0.33   6.0   WSW   10.4   10.9   10.4  1023.5  0.00  0.00   0.026   0.000   24.6    43   11.1   24.2   8.05  .0738    117    1    100.0    5 
14/11/17  20:05   10.9   10.9   10.9    89    9.1   3.0   WSW   0.25   5.0   WSW   10.8   11.0   10.9  1023.5  0.00  0.00   0.026   0.000   24.6    43   11.1   24.2   8.05  .0738    118    1    100.0    5 
14/11/17  20:10   10.9   10.9   10.9    89    9.1   3.0   WSW   0.25   5.0   WSW   10.8   11.0   10.9  1023.5  0.00  0.00   0.026   0.000   24.6    43   11.2   24.3   8.05  .0738    116    1    100.0    5 
14/11/17  20:15   10.9   10.9   10.8    89    9.1   4.0   WSW   0.33   5.0   WSW   10.4   11.0   10.5  1023.6  0.00  0.00   0.026   0.000   24.6    43   11.2   24.3   8.05  .0738    116    1    100.0    5 
14/11/17  20:20   10.9   10.9   10.8    89    9.1   3.0   WSW   0.25   6.0   WSW   10.8   11.0   10.9  1023.6  0.00  0.00   0.026   0.000   24.7    43   11.2   24.3   8.05  .0738    117    1    100.0    5 
14/11/17  20:25   10.9   10.9   10.9    89    9.2   4.0   WSW   0.33   7.0   WSW   10.4   11.1   10.6  1023.5  0.00  0.00   0.026   0.000   24.7    43   11.2   24.3   8.05  .0738    115    1    100.0    5 
14/11/17  20:30   10.9   10.9   10.9    89    9.2   4.0     W   0.33   7.0     W   10.4   11.1   10.6  1023.6  0.00  0.00   0.026   0.000   24.7    43   11.2   24.3   8.05  .0738    117    1    100.0    5 
14/11/17  20:35   10.9   10.9   10.9    89    9.2   3.0     W   0.25   5.0     W   10.9   11.1   11.0  1023.5  0.00  0.00   0.026   0.000   24.7    43   11.2   24.3   8.05  .0738    117    1    100.0    5 
14/11/17  20:40   10.9   11.0   10.9    89    9.2   3.0     W   0.25   7.0     W   10.9   11.1   11.0  1023.5  0.00  0.00   0.026   0.000   24.7    43   11.2   24.3   8.05  .0738    116    1    100.0    5 
14/11/17  20:45   10.9   11.0   10.9    89    9.2   4.0     W   0.33   6.0     W   10.4   11.1   10.6  1023.6  0.00  0.00   0.026   0.000   24.7    43   11.2   24.3   8.05  .0738    117    1    100.0    5 
14/11/17  20:50   10.9   11.0   10.9    89    9.2   4.0     W   0.33   6.0     W   10.4   11.1   10.6  1023.6  0.00  0.00   0.026   0.000   24.7    43   11.2   24.3   8.05  .0738    116    1    100.0    5 
14/11/17  20:55   10.9   11.0   10.9    89    9.2   3.0     W   0.25   6.0     W   10.9   11.1   11.0  1023.6  0.00  0.00   0.026   0.000   24.7    43   11.2   24.3   8.05  .0738    116    1    100.0    5 
14/11/17  21:00   11.0   11.0   10.9    89    9.3   4.0     W   0.33   7.0     W   10.6   11.1   10.7  1023.6  0.00  0.00   0.025   0.000   24.7    43   11.2   24.3   8.05  .0738    117    1    100.0    5 
14/11/17  21:05   11.0   11.0   11.0    89    9.3   4.0     W   0.33   6.0     W   10.6   11.1   10.7  1023.6  0.00  0.00   0.025   0.000   24.7    43   11.2   24.3   8.05  .0738    114    1    100.0    5 
14/11/17  21:10   11.0   11.0   10.9    89    9.3   3.0     W   0.25   7.0     W   10.9   11.1   11.1  1023.6  0.00  0.00   0.025   0.000   24.7    43   11.2   24.3   8.05  .0738    117    1    100.0    5 
14/11/17  21:15   10.9   11.0   10.9    89    9.2   4.0     W   0.33   6.0     W   10.4   11.1   10.6  1023.6  0.00  0.00   0.026   0.000   24.7    43   11.2   24.3   8.05  .0738    116    1    100.0    5 
14/11/17  21:20   10.9   10.9   10.9    89    9.2   5.0     W   0.42   9.0     W   10.1   11.1   10.2  1023.6  0.00  0.00   0.026   0.000   24.7    43   11.2   24.3   8.05  .0738    116    1    100.0    5 
14/11/17  21:25   11.0   11.0   10.9    89    9.3   4.0     W   0.33   7.0     W   10.6   11.1   10.7  1023.6  0.00  0.00   0.025   0.000   24.7    42   10.9   24.3   7.92  .0738    117    1    100.0    5 
14/11/17  21:30   11.0   11.0   10.9    89    9.3   5.0     W   0.42   7.0     W   10.2   11.1   10.3  1023.6  0.00  0.00   0.025   0.000   24.7    42   10.9   24.3   7.92  .0738    117    1    100.0    5 
14/11/17  21:35   11.0   11.0   10.9    89    9.3   5.0     W   0.42   7.0     W   10.2   11.1   10.3  1023.7  0.00  0.00   0.025   0.000   24.7    42   10.9   24.3   7.92  .0738    115    1    100.0    5 
14/11/17  21:40   11.0   11.0   11.0    89    9.3   4.0     W   0.33   7.0     W   10.6   11.1   10.7  1023.7  0.00  0.00   0.025   0.000   24.7    42   10.9   24.3   7.92  .0738    116    1    100.0    5 
14/11/17  21:45   11.0   11.0   11.0    89    9.3   4.0   WSW   0.33   6.0   WSW   10.6   11.1   10.7  1023.8  0.00  0.00   0.025   0.000   24.7    42   10.9   24.3   7.92  .0738    116    1    100.0    5 
14/11/17  21:50   11.0   11.0   10.9    89    9.3   4.0   WSW   0.33   7.0   WSW   10.6   11.1   10.7  1023.7  0.00  0.00   0.025   0.000   24.7    42   10.9   24.3   7.92  .0738    116    1    100.0    5 
14/11/17  21:55   10.9   10.9   10.9    89    9.2   4.0   WSW   0.33   7.0   WSW   10.4   11.1   10.6  1023.7  0.00  0.00   0.026   0.000   24.7    42   10.9   24.3   7.92  .0738    116    1    100.0    5 
14/11/17  22:00   10.9   10.9   10.9    89    9.2   4.0   WSW   0.33   7.0   WSW   10.4   11.1   10.6  1023.6  0.00  0.00   0.026   0.000   24.7    42   10.9   24.3   7.92  .0738    117    1    100.0    5 
14/11/17  22:05   10.9   10.9   10.9    88    9.0   2.0   WSW   0.17   8.0     W   10.9   10.9   10.9  1023.7  0.00  0.00   0.026   0.000   24.7    42   10.9   24.3   7.92  .0738    116    1    100.0    5 
14/11/17  22:10   10.8   10.9   10.8    88    8.9   3.0     W   0.25   8.0     W   10.8   10.9   10.8  1023.6  0.00  0.00   0.026   0.000   24.7    42   10.9   24.3   7.92  .0738    116    1    100.0    5 
14/11/17  22:15   10.8   10.8   10.8    88    8.9   3.0     W   0.25   6.0     W   10.8   10.9   10.8  1023.6  0.00  0.00   0.026   0.000   24.7    42   10.9   24.3   7.92  .0738    118    1    100.0    5 
14/11/17  22:20   10.8   10.8   10.8    88    8.9   2.0     W   0.17   6.0     W   10.8   10.8   10.8  1023.6  0.00  0.00   0.026   0.000   24.7    42   10.9   24.3   7.92  .0738    116    1    100.0    5 
14/11/17  22:25   10.7   10.8   10.7    88    8.8   3.0     W   0.25   6.0     W   10.6   10.8   10.7  1023.5  0.00  0.00   0.026   0.000   24.7    42   10.9   24.3   7.92  .0738    116    1    100.0    5 
14/11/17  22:30   10.7   10.7   10.7    89    8.9   3.0     W   0.25   6.0     W   10.6   10.8   10.7  1023.5  0.00  0.00   0.027   0.000   24.7    42   10.9   24.3   7.92  .0738    117    1    100.0    5 
14/11/17  22:35   10.6   10.7   10.6    89    8.9   2.0     W   0.17   5.0     W   10.6   10.7   10.7  1023.5  0.00  0.00   0.027   0.000   24.7    42   10.9   24.3   7.92  .0738    116    1    100.0    5 
14/11/17  22:40   10.6   10.6   10.6    89    8.8   2.0     W   0.17   5.0     W   10.6   10.7   10.7  1023.5  0.00  0.00   0.027   0.000   24.7    42   10.9   24.3   7.92  .0738    117    1    100.0    5 
14/11/17  22:45   10.5   10.6   10.5    88    8.6   4.0     W   0.33   7.0     W    9.9   10.6   10.0  1023.5  0.00  0.00   0.027   0.000   24.7    42   10.9   24.3   7.92  .0738    116    1    100.0    5 
14/11/17  22:50   10.5   10.5   10.5    89    8.8   3.0     W   0.25   5.0     W   10.4   10.6   10.5  1023.5  0.00  0.00   0.027   0.000   24.7    42   10.9   24.3   7.92  .0738    115    1    100.0    5 
14/11/17  22:55   10.5   10.5   10.4    89    8.8   3.0     W   0.25   6.0     W   10.4   10.6   10.5  1023.5  0.00  0.00   0.027   0.000   24.7    42   10.9   24.3   7.92  .0738    117    1    100.0    5 
14/11/17  23:00   10.4   10.5   10.4    89    8.7   3.0     W   0.25   5.0     W   10.3   10.6   10.4  1023.4  0.00  0.00   0.027   0.000   24.7    42   10.9   24.3   7.92  .0738    117    1    100.0    5 
14/11/17  23:05   10.4   10.5   10.4    89    8.7   3.0     W   0.25   6.0     W   10.3   10.6   10.4  1023.4  0.00  0.00   0.027   0.000   24.7    42   10.9   24.3   7.92  .0738    117    1    100.0    5 
14/11/17  23:10   10.5   10.5   10.4    89    8.8   2.0     W   0.17   6.0     W   10.5   10.6   10.6  1023.5  0.00  0.00   0.027   0.000   24.7    42   10.9   24.3   7.92  .0738    116    1    100.0    5 
14/11/17  23:15   10.5   10.5   10.5    89    8.8   3.0     W   0.25   5.0     W   10.4   10.6   10.5  1023.5  0.00  0.00   0.027   0.000   24.7    42   10.9   24.3   7.92  .0738    116    1    100.0    5 
14/11/17  23:20   10.5   10.5   10.5    89    8.8   2.0     W   0.17   5.0     W   10.5   10.6   10.6  1023.5  0.00  0.00   0.027   0.000   24.7    42   10.9   24.3   7.92  .0738    116    1    100.0    5 
14/11/17  23:25   10.5   10.5   10.4    89    8.8   2.0     W   0.17   5.0     W   10.5   10.6   10.6  1023.5  0.00  0.00   0.027   0.000   24.7    42   10.9   24.3   7.92  .0738    117    1    100.0    5 
14/11/17  23:30   10.5   10.5   10.4    89    8.8   2.0     W   0.17   4.0     W   10.5   10.6   10.6  1023.5  0.00  0.00   0.027   0.000   24.7    42   10.9   24.3   7.92  .0738    115    1    100.0    5 
14/11/17  23:35   10.4   10.4   10.4    89    8.7   2.0     W   0.17   4.0     W   10.4   10.6   10.6  1023.5  0.00  0.00   0.027   0.000   24.7    42   10.9   24.3   7.92  .0738    116    1    100.0    5 
14/11/17  23:40   10.4   10.4   10.4    89    8.7   3.0     W   0.25   5.0     W   10.3   10.6   10.4  1023.5  0.00  0.00   0.027   0.000   24.7    42   10.9   24.3   7.92  .0738    117    1    100.0    5 
14/11/17  23:45   10.4   10.4   10.4    89    8.7   3.0     W   0.25   4.0     W   10.3   10.5   10.4  1023.6  0.00  0.00   0.028   0.000   24.7    42   10.9   24.3   7.92  .0738    115    1    100.0    5 
14/11/17  23:50   10.4   10.4   10.4    89    8.7   3.0     W   0.25   5.0     W   10.3   10.6   10.4  1023.5  0.00  0.00   0.027   0.000   24.7    42   10.9   24.3   7.92  .0738    115    1    100.0    5 
14/11/17  23:55   10.4   10.4   10.4    89    8.7   4.0     W   0.33   6.0     W    9.9   10.6   10.0  1023.5  0.00  0.00   0.027   0.000   24.7    42   10.9   24.3   7.92  .0738    116    1    100.0    5 
15/11/17  00:00   10.4   10.4   10.4    89    8.7   3.0     W   0.25   6.0     W   10.3   10.6   10.4  1023.5  0.00  0.00   0.027   0.000   24.7    42   10.9   24.3   7.92  .0738    117    1    100.0    5 
15/11/17   0:05   10.4   10.5   10.4    89    8.7   4.0     W   0.33   7.0     W    9.9   10.6   10.0  1023.5  0.00  0.00   0.027   0.000   24.7    42   10.9   24.3   7.92  .0738    116    1    100.0    5 
15/11/17   0:10   10.5   10.5   10.4    89    8.8   4.0     W   0.33   7.0     W    9.9   10.6   10.1  1023.5  0.00  0.00   0.027   0.000   24.7    42   10.9   24.3   7.92  .0738    117    1    100.0    5 
15/11/17   0:15   10.6   10.6   10.5    89    8.8   4.0     W   0.33   6.0     W   10.0   10.7   10.1  1023.5  0.00  0.00   0.027   0.000   24.7    42   10.9   24.3   7.92  .0738    117    1    100.0    5 
15/11/17   0:20   10.6   10.6   10.6    89    8.8   4.0     W   0.33   6.0     W   10.0   10.7   10.1  1023.5  0.00  0.00   0.027   0.000   24.7    43   11.2   24.3   8.05  .0738    116    1    100.0    5 
15/11/17   0:25   10.6   10.6   10.6    89    8.8   3.0     W   0.25   6.0     W   10.4   10.7   10.6  1023.5  0.00  0.00   0.027   0.000   24.7    43   11.2   24.3   8.05  .0738    117    1    100.0    5 
15/11/17   0:30   10.6   10.6   10.6    89    8.8   4.0     W   0.33   7.0     W   10.0   10.7   10.1  1023.4  0.00  0.00   0.027   0.000   24.7    43   11.3   24.4   8.05  .0738    117    1    100.0    5 
15/11/17   0:35   10.6   10.6   10.6    89    8.8   3.0     W   0.25   4.0     W   10.4   10.7   10.6  1023.4  0.00  0.00   0.027   0.000   24.7    43   11.3   24.4   8.05  .0738    117    1    100.0    5 
15/11/17   0:40   10.5   10.6   10.5    89    8.8   3.0     W   0.25   5.0     W   10.4   10.6   10.5  1023.4  0.00  0.00   0.027   0.000   24.7    43   11.3   24.4   8.05  .0738    117    1    100.0    5 
15/11/17   0:45   10.4   10.5   10.4    89    8.7   3.0     W   0.25   4.0     W   10.3   10.6   10.4  1023.5  0.00  0.00   0.027   0.000   24.7    43   11.3   24.4   8.05  .0738    118    1    100.0    5 
15/11/17   0:50   10.4   10.4   10.4    89    8.7   3.0     W   0.25   5.0     W   10.3   10.5   10.4  1023.4  0.00  0.00   0.028   0.000   24.7    43   11.3   24.4   8.05  .0738    116    1    100.0    5 
15/11/17   0:55   10.4   10.4   10.4    90    8.8   3.0     W   0.25   6.0     W   10.3   10.5   10.4  1023.4  0.00  0.00   0.028   0.000   24.8    43   11.3   24.4   8.05  .0738    117    1    100.0    5 
15/11/17   1:00   10.4   10.4   10.4    90    8.8   4.0     W   0.33   5.0     W    9.8   10.5    9.9  1023.4  0.00  0.00   0.028   0.000   24.7    43   11.3   24.4   8.05  .0738    116    1    100.0    5 
15/11/17   1:05   10.3   10.4   10.3    89    8.6   2.0     W   0.17   5.0     W   10.3   10.4   10.4  1023.4  0.00  0.00   0.028   0.000   24.7    43   11.3   24.4   8.05  .0738    117    1    100.0    5 
15/11/17   1:10   10.3   10.3   10.3    90    8.7   2.0     W   0.17   5.0     W   10.3   10.4   10.4  1023.4  0.00  0.00   0.028   0.000   24.8    43   11.3   24.4   8.05  .0738    117    1    100.0    5 
15/11/17   1:15   10.2   10.3   10.2    90    8.7   2.0     W   0.17   4.0     W   10.2   10.4   10.4  1023.4  0.00  0.00   0.028   0.000   24.8    43   11.3   24.4   8.05  .0738    116    1    100.0    5 
15/11/17   1:20   10.2   10.2   10.2    90    8.7   2.0     W   0.17   5.0     W   10.2   10.4   10.4  1023.4  0.00  0.00   0.028   0.000   24.8    43   11.3   24.4   8.05  .0738    116    1    100.0    5 
15/11/17   1:25   10.2   10.2   10.2    90    8.6   2.0     W   0.17   4.0     W   10.2   10.3   10.3  1023.4  0.00  0.00   0.028   0.000   24.8    43   11.3   24.4   8.05  .0738    116    1    100.0    5 
15/11/17   1:30   10.1   10.2   10.1    90    8.5   2.0     W   0.17   4.0     W   10.1   10.3   10.3  1023.3  0.00  0.00   0.029   0.000   24.8    43   11.3   24.4   8.05  .0738    117    1    100.0    5 
15/11/17   1:35   10.1   10.1   10.1    90    8.5   1.0     W   0.08   4.0     W   10.1   10.2   10.2  1023.3  0.00  0.00   0.029   0.000   24.8    43   11.3   24.4   8.05  .0738    117    1    100.0    5 
15/11/17   1:40   10.0   10.1   10.0    90    8.4   1.0     W   0.08   5.0     W   10.0   10.2   10.2  1023.4  0.00  0.00   0.029   0.000   24.8    43   11.3   24.4   8.05  .0738    116    1    100.0    5 
15/11/17   1:45    9.9   10.0    9.9    90    8.4   1.0     W   0.08   3.0     W    9.9   10.1   10.1  1023.4  0.00  0.00   0.029   0.000   24.8    43   11.3   24.4   8.05  .0738    115    1    100.0    5 
15/11/17   1:50    9.9    9.9    9.9    90    8.3   0.0     W   0.00   2.0     W    9.9   10.1   10.1  1023.4  0.00  0.00   0.029   0.000   24.8    43   11.3   24.4   8.05  .0738    118    1    100.0    5 
15/11/17   1:55    9.8    9.9    9.8    90    8.3   0.0     W   0.00   1.0     W    9.8   10.0   10.0  1023.5  0.00  0.00   0.030   0.000   24.8    43   11.3   24.4   8.05  .0738    116    1    100.0    5 
15/11/17   2:00    9.8    9.8    9.8    90    8.2   0.0   ---   0.00   0.0   ---    9.8    9.9    9.9  1023.5  0.00  0.00   0.030   0.000   24.8    43   11.3   24.4   8.05  .0738    116    1    100.0    5 
15/11/17   2:05    9.7    9.8    9.7    90    8.1   0.0     W   0.00   2.0     W    9.7    9.8    9.8  1023.4  0.00  0.00   0.030   0.000   24.8    43   11.3   24.4   8.05  .0738    116    1    100.0    5 
15/11/17   2:10    9.6    9.7    9.6    90    8.0   0.0     W   0.00   1.0     W    9.6    9.7    9.7  1023.4  0.00  0.00   0.030   0.000   24.8    44   11.7   24.5   8.22  .0737    117    1    100.0    5 
15/11/17   2:15    9.5    9.6    9.5    90    7.9   0.0   ---   0.00   0.0   ---    9.5    9.7    9.7  1023.4  0.00  0.00   0.031   0.000   24.8    44   11.7   24.5   8.22  .0737    116    1    100.0    5 
15/11/17   2:20    9.4    9.5    9.4    90    7.9   0.0   ---   0.00   0.0   ---    9.4    9.6    9.6  1023.4  0.00  0.00   0.031   0.000   24.8    44   11.7   24.5   8.22  .0737    117    1    100.0    5 
15/11/17   2:25    9.4    9.4    9.4    90    7.8   0.0     W   0.00   1.0     W    9.4    9.6    9.6  1023.3  0.00  0.00   0.031   0.000   24.7    44   11.6   24.4   8.22  .0738    114    1    100.0    5 
15/11/17   2:30    9.4    9.4    9.4    90    7.8   0.0   ---   0.00   0.0   ---    9.4    9.6    9.6  1023.3  0.00  0.00   0.031   0.000   24.8    44   11.7   24.5   8.22  .0737    116    1    100.0    5 
15/11/17   2:35    9.3    9.4    9.3    90    7.8   0.0   ---   0.00   0.0   ---    9.3    9.5    9.5  1023.3  0.00  0.00   0.031   0.000   24.8    44   11.7   24.5   8.22  .0737    115    1    100.0    5 
15/11/17   2:40    9.3    9.3    9.3    90    7.8   0.0   ---   0.00   0.0   ---    9.3    9.5    9.5  1023.3  0.00  0.00   0.031   0.000   24.7    44   11.6   24.4   8.22  .0738    117    1    100.0    5 
15/11/17   2:45    9.3    9.3    9.3    90    7.7   0.0   ---   0.00   0.0   ---    9.3    9.4    9.4  1023.3  0.00  0.00   0.031   0.000   24.8    44   11.7   24.5   8.22  .0737    117    1    100.0    5 
15/11/17   2:50    9.3    9.3    9.3    91    7.9   0.0   ---   0.00   0.0   ---    9.3    9.4    9.4  1023.3  0.00  0.00   0.031   0.000   24.8    44   11.7   24.5   8.22  .0737    117    1    100.0    5 
15/11/17   2:55    9.3    9.3    9.3    91    7.9   0.0     W   0.00   1.0     W    9.3    9.4    9.4  1023.3  0.00  0.00   0.031   0.000   24.8    44   11.7   24.5   8.22  .0737    117    1    100.0    5 
15/11/17   3:00    9.3    9.3    9.3    91    7.9   0.0     W   0.00   1.0     W    9.3    9.4    9.4  1023.3  0.00  0.00   0.031   0.000   24.8    44   11.7   24.5   8.22  .0737    117    1    100.0    5 
15/11/17   3:05    9.3    9.3    9.3    91    7.9   0.0     W   0.00   1.0     W    9.3    9.5    9.5  1023.2  0.00  0.00   0.031   0.000   24.8    44   11.7   24.5   8.22  .0737    116    1    100.0    5 
15/11/17   3:10    9.3    9.3    9.3    91    7.9   0.0     W   0.00   1.0     W    9.3    9.5    9.5  1023.2  0.00  0.00   0.031   0.000   24.8    44   11.7   24.5   8.22  .0737    117    1    100.0    5 
15/11/17   3:15    9.3    9.4    9.3    91    7.9   0.0     W   0.00   1.0     W    9.3    9.5    9.5  1023.2  0.00  0.00   0.031   0.000   24.8    44   11.7   24.5   8.22  .0737    115    1    100.0    5 
15/11/17   3:20    9.4    9.4    9.3    91    8.0   0.0     W   0.00   1.0     W    9.4    9.6    9.6  1023.2  0.00  0.00   0.031   0.000   24.8    44   11.7   24.5   8.22  .0737    117    1    100.0    5 
15/11/17   3:25    9.4    9.4    9.4    91    8.0   0.0     W   0.00   1.0     W    9.4    9.6    9.6  1023.1  0.00  0.00   0.031   0.000   24.8    44   11.7   24.5   8.22  .0737    116    1    100.0    5 
15/11/17   3:30    9.4    9.4    9.4    91    8.0   0.0   ---   0.00   0.0   ---    9.4    9.6    9.6  1023.2  0.00  0.00   0.031   0.000   24.8    44   11.7   24.5   8.22  .0737    117    1    100.0    5 
15/11/17   3:35    9.4    9.4    9.4    91    8.0   0.0     W   0.00   1.0     W    9.4    9.6    9.6  1023.2  0.00  0.00   0.031   0.000   24.8    44   11.7   24.5   8.22  .0737    117    1    100.0    5 
15/11/17   3:40    9.4    9.4    9.4    91    8.0   0.0   ---   0.00   0.0   ---    9.4    9.6    9.6  1023.2  0.00  0.00   0.031   0.000   24.8    44   11.7   24.5   8.22  .0737    117    1    100.0    5 
15/11/17   3:45    9.4    9.4    9.4    91    8.0   1.0     W   0.08   4.0     W    9.4    9.6    9.6  1023.2  0.00  0.00   0.031   0.000   24.8    44   11.7   24.5   8.22  .0737    117    1    100.0    5 
15/11/17   3:50    9.4    9.4    9.4    91    8.0   0.0     W   0.00   2.0     W    9.4    9.6    9.6  1023.2  0.00  0.00   0.031   0.000   24.8    44   11.7   24.6   8.22  .0737    116    1    100.0    5 
15/11/17   3:55    9.5    9.5    9.4    91    8.1   1.0     W   0.08   3.0     W    9.5    9.7    9.7  1023.2  0.00  0.00   0.031   0.000   24.9    44   11.8   24.6   8.21  .0737    118    1    100.0    5 
15/11/17   4:00    9.6    9.6    9.5    91    8.2   1.0     W   0.08   3.0     W    9.6    9.7    9.7  1023.2  0.00  0.00   0.030   0.000   24.9    44   11.8   24.6   8.21  .0737    116    1    100.0    5 
15/11/17   4:05    9.6    9.6    9.6    91    8.2   1.0     W   0.08   3.0     W    9.6    9.7    9.7  1023.2  0.00  0.00   0.030   0.000   24.9    44   11.8   24.6   8.21  .0737    117    1    100.0    5 
15/11/17   4:10    9.6    9.6    9.6    91    8.2   1.0     W   0.08   3.0     W    9.6    9.8    9.8  1023.2  0.00  0.00   0.030   0.000   24.8    44   11.7   24.6   8.22  .0737    114    1    100.0    5 
15/11/17   4:15    9.6    9.7    9.6    91    8.2   1.0     W   0.08   3.0     W    9.6    9.8    9.8  1023.2  0.00  0.00   0.030   0.000   24.8    44   11.7   24.5   8.22  .0737    116    1    100.0    5 
15/11/17   4:20    9.6    9.7    9.6    91    8.2   1.0     W   0.08   2.0     W    9.6    9.8    9.8  1023.2  0.00  0.00   0.030   0.000   24.8    44   11.7   24.5   8.22  .0737    114    1    100.0    5 
15/11/17   4:25    9.6    9.7    9.6    91    8.2   0.0     W   0.00   2.0     W    9.6    9.8    9.8  1023.2  0.00  0.00   0.030   0.000   24.8    44   11.7   24.5   8.22  .0737    117    1    100.0    5 
15/11/17   4:30    9.6    9.6    9.6    91    8.2   1.0     W   0.08   2.0     W    9.6    9.8    9.8  1023.3  0.00  0.00   0.030   0.000   24.8    44   11.7   24.5   8.22  .0737    117    1    100.0    5 
15/11/17   4:35    9.6    9.6    9.6    91    8.2   0.0     W   0.00   2.0     W    9.6    9.7    9.7  1023.3  0.00  0.00   0.030   0.000   24.7    44   11.6   24.4   8.22  .0738    117    1    100.0    5 
15/11/17   4:40    9.6    9.6    9.6    91    8.2   0.0     W   0.00   3.0     W    9.6    9.8    9.8  1023.3  0.00  0.00   0.030   0.000   24.7    44   11.6   24.4   8.22  .0738    117    1    100.0    5 
15/11/17   4:45    9.7    9.7    9.6    91    8.3   0.0     W   0.00   2.0     W    9.7    9.8    9.8  1023.3  0.00  0.00   0.030   0.000   24.8    44   11.7   24.5   8.22  .0737    117    1    100.0    5 
15/11/17   4:50    9.7    9.7    9.7    92    8.4   0.0     W   0.00   1.0     W    9.7    9.9    9.9  1023.4  0.00  0.00   0.030   0.000   24.8    44   11.7   24.5   8.22  .0737    117    1    100.0    5 
15/11/17   4:55    9.7    9.7    9.7    92    8.5   0.0     W   0.00   1.0     W    9.7    9.9    9.9  1023.3  0.00  0.00   0.030   0.000   24.8    44   11.7   24.5   8.22  .0737    117    1    100.0    5 
15/11/17   5:00    9.8    9.8    9.7    92    8.6   0.0   ---   0.00   0.0   ---    9.8   10.1   10.1  1023.3  0.00  0.00   0.030   0.000   24.8    44   11.7   24.5   8.22  .0737    118    1    100.0    5 
15/11/17   5:05    9.8    9.8    9.8    92    8.6   0.0   ---   0.00   0.0   ---    9.8   10.1   10.1  1023.3  0.00  0.00   0.030   0.000   24.8    44   11.7   24.5   8.22  .0737    117    1    100.0    5 
15/11/17   5:10    9.9    9.9    9.8    92    8.6   0.0   ---   0.00   0.0   ---    9.9   10.1   10.1  1023.3  0.00  0.00   0.029   0.000   24.8    44   11.7   24.5   8.22  .0737    117    1    100.0    5 
15/11/17   5:15    9.9    9.9    9.8    92    8.6   0.0     W   0.00   2.0     W    9.9   10.1   10.1  1023.2  0.00  0.00   0.029   0.000   24.7    44   11.6   24.4   8.22  .0737    116    1    100.0    5 
15/11/17   5:20   10.0   10.0    9.9    92    8.8   0.0     W   0.00   2.0     W   10.0   10.2   10.2  1023.2  0.00  0.00   0.029   0.000   24.8    44   11.7   24.5   8.22  .0737    117    1    100.0    5 
15/11/17   5:25   10.1   10.1   10.0    92    8.9   1.0     W   0.08   2.0     W   10.1   10.3   10.3  1023.2  0.00  0.00   0.029   0.000   24.7    44   11.6   24.4   8.22  .0737    117    1    100.0    5 
15/11/17   5:30   10.1   10.2   10.1    92    8.9   1.0     W   0.08   1.0     W   10.1   10.3   10.3  1023.2  0.00  0.00   0.029   0.000   24.7    44   11.6   24.4   8.22  .0737    117    1    100.0    5 
15/11/17   5:35   10.1   10.1   10.1    92    8.8   1.0     W   0.08   2.0     W   10.1   10.3   10.3  1023.2  0.00  0.00   0.029   0.000   24.7    44   11.6   24.4   8.22  .0737    117    1    100.0    5 
15/11/17   5:40   10.1   10.1   10.1    92    8.9   0.0     W   0.00   2.0     W   10.1   10.3   10.3  1023.3  0.00  0.00   0.029   0.000   24.7    44   11.6   24.4   8.22  .0737    117    1    100.0    5 
15/11/17   5:45   10.2   10.2   10.1    93    9.1   0.0     W   0.00   2.0     W   10.2   10.4   10.4  1023.3  0.00  0.00   0.028   0.000   24.7    44   11.6   24.4   8.22  .0737    115    1    100.0    5 
15/11/17   5:50   10.3   10.3   10.2    93    9.2   1.0     W   0.08   2.0     W   10.3   10.5   10.5  1023.3  0.00  0.00   0.028   0.000   24.8    45   12.0   24.5   8.42  .0737    116    1    100.0    5 
15/11/17   5:55   10.3   10.3   10.3    93    9.3   1.0     W   0.08   2.0     W   10.3   10.6   10.6  1023.3  0.00  0.00   0.028   0.000   24.7    45   12.0   24.5   8.42  .0737    117    1    100.0    5 
15/11/17   6:00   10.3   10.3   10.3    93    9.3   1.0     W   0.08   3.0     W   10.3   10.6   10.6  1023.3  0.00  0.00   0.028   0.000   24.8    45   12.0   24.5   8.42  .0737    117    1    100.0    5 
15/11/17   6:05   10.3   10.3   10.3    93    9.3   1.0     W   0.08   4.0     W   10.3   10.6   10.6  1023.3  0.00  0.00   0.028   0.000   24.8    45   12.0   24.5   8.42  .0737    118    1    100.0    5 
15/11/17   6:10   10.3   10.3   10.3    93    9.3   2.0     W   0.17   5.0     W   10.3   10.6   10.6  1023.3  0.00  0.00   0.028   0.000   24.8    44   11.7   24.5   8.22  .0737    115    1    100.0    5 
15/11/17   6:15   10.4   10.4   10.3    93    9.3   2.0     W   0.17   4.0     W   10.4   10.6   10.6  1023.3  0.00  0.00   0.028   0.000   24.8    44   11.7   24.5   8.22  .0737    117    1    100.0    5 
15/11/17   6:20   10.5   10.5   10.4    93    9.4   2.0     W   0.17   4.0     W   10.5   10.7   10.7  1023.2  0.00  0.00   0.027   0.000   24.8    44   11.7   24.5   8.22  .0737    116    1    100.0    5 
15/11/17   6:25   10.6   10.6   10.4    93    9.5   3.0     W   0.25   5.0     W   10.4   10.7   10.6  1023.2  0.00  0.00   0.027   0.000   24.8    44   11.7   24.5   8.22  .0737    117    1    100.0    5 
15/11/17   6:30   10.6   10.6   10.6    93    9.5   2.0     W   0.17   5.0     W   10.6   10.8   10.8  1023.2  0.00  0.00   0.027   0.000   24.8    44   11.7   24.5   8.22  .0737    116    1    100.0    5 
15/11/17   6:35   10.7   10.7   10.6    93    9.6   2.0     W   0.17   4.0     W   10.7   10.8   10.8  1023.2  0.00  0.00   0.027   0.000   24.8    44   11.7   24.5   8.22  .0737    116    1    100.0    5 
15/11/17   6:40   10.7   10.7   10.7    93    9.6   2.0     W   0.17   4.0     W   10.7   10.9   10.9  1023.2  0.00  0.00   0.026   0.000   24.8    44   11.7   24.5   8.22  .0737    116    1    100.0    5 
15/11/17   6:45   10.7   10.7   10.7    93    9.6   3.0     W   0.25   5.0     W   10.6   10.9   10.8  1023.2  0.00  0.00   0.026   0.000   24.8    44   11.7   24.5   8.22  .0737    117    1    100.0    5 
15/11/17   6:50   10.8   10.8   10.7    93    9.7   4.0     W   0.33   7.0     W   10.3   10.9   10.4  1023.3  0.00  0.00   0.026   0.000   24.8    44   11.7   24.6   8.22  .0737    116    1    100.0    5 
15/11/17   6:55   10.8   10.8   10.8    93    9.7   4.0     W   0.33   7.0     W   10.3   11.0   10.5  1023.3  0.00  0.00   0.026   0.000   24.8    44   11.7   24.6   8.22  .0737    115    1    100.0    5 
15/11/17   7:00   10.8   10.8   10.8    93    9.7   4.0     W   0.33   6.0     W   10.3   11.0   10.5  1023.3  0.00  0.00   0.026   0.000   24.8    44   11.7   24.6   8.22  .0737    116    1    100.0    5 
15/11/17   7:05   10.8   10.8   10.8    93    9.7   3.0     W   0.25   6.0     W   10.8   11.0   10.9  1023.3  0.00  0.00   0.026   0.000   24.8    44   11.7   24.6   8.22  .0737    116    1    100.0    5 
15/11/17   7:10   10.8   10.8   10.8    93    9.7   2.0     W   0.17   6.0     W   10.8   11.0   11.0  1023.3  0.00  0.00   0.026   0.000   24.9    44   11.8   24.6   8.21  .0737    118    1    100.0    5 
15/11/17   7:15   10.8   10.8   10.8    93    9.7   2.0     W   0.17   6.0     W   10.8   11.0   11.0  1023.2  0.00  0.00   0.026   0.000   24.9    45   12.1   24.6   8.41  .0737    116    1    100.0    5 
15/11/17   7:20   10.8   10.8   10.8    93    9.7   2.0     W   0.17   6.0     W   10.8   11.0   11.0  1023.3  0.00  0.00   0.026   0.000   24.9    45   12.1   24.6   8.41  .0737    116    1    100.0    5 
15/11/17   7:25   10.8   10.8   10.8    93    9.7   2.0     W   0.17   5.0     W   10.8   11.0   11.0  1023.4  0.00  0.00   0.026   0.000   24.9    44   11.8   24.6   8.21  .0737    116    1    100.0    5 
15/11/17   7:30   10.8   10.8   10.8    93    9.7   0.0     W   0.00   3.0     W   10.8   11.0   11.0  1023.4  0.00  0.00   0.026   0.000   24.9    45   12.1   24.6   8.41  .0737    116    1    100.0    5 
15/11/17   7:35   10.8   10.8   10.8    93    9.7   1.0     W   0.08   4.0     W   10.8   11.0   11.0  1023.4  0.00  0.00   0.026   0.000   24.9    45   12.1   24.6   8.41  .0737    117    1    100.0    5 
15/11/17   7:40   10.8   10.8   10.8    93    9.7   2.0     W   0.17   4.0     W   10.8   10.9   10.9  1023.4  0.00  0.00   0.026   0.000   24.9    45   12.1   24.6   8.41  .0737    115    1    100.0    5 
15/11/17   7:45   10.8   10.8   10.8    93    9.7   1.0     W   0.08   4.0     W   10.8   10.9   10.9  1023.4  0.00  0.00   0.026   0.000   24.9    45   12.1   24.6   8.41  .0737    117    1    100.0    5 
15/11/17   7:50   10.8   10.8   10.8    93    9.7   1.0     W   0.08   3.0     W   10.8   10.9   10.9  1023.5  0.00  0.00   0.026   0.000   24.9    45   12.2   24.7   8.41  .0737    116    1    100.0    5 
15/11/17   7:55   10.8   10.8   10.8    93    9.7   1.0     W   0.08   3.0     W   10.8   10.9   10.9  1023.6  0.00  0.00   0.026   0.000   24.9    44   11.8   24.6   8.21  .0737    117    1    100.0    5 
15/11/17   8:00   10.7   10.8   10.7    93    9.6   1.0     W   0.08   3.0     W   10.7   10.9   10.9  1023.5  0.00  0.00   0.026   0.000   25.0    44   11.9   24.7   8.21  .0737    117    1    100.0    5 
15/11/17   8:05   10.7   10.8   10.7    93    9.6   0.0     W   0.00   3.0     W   10.7   10.9   10.9  1023.6  0.00  0.00   0.026   0.000   24.9    44   11.8   24.6   8.21  .0737    115    1    100.0    5 
15/11/17   8:10   10.6   10.7   10.6    93    9.5   1.0     W   0.08   2.0     W   10.6   10.8   10.8  1023.7  0.00  0.00   0.027   0.000   24.9    44   11.8   24.6   8.21  .0737    118    1    100.0    5 
15/11/17   8:15   10.6   10.6   10.6    93    9.5   1.0     W   0.08   2.0     W   10.6   10.7   10.7  1023.8  0.00  0.00   0.027   0.000   25.0    44   11.9   24.7   8.21  .0737    115    1    100.0    5 
15/11/17   8:20   10.5   10.6   10.5    93    9.4   0.0     W   0.00   1.0     W   10.5   10.7   10.7  1023.8  0.00  0.00   0.027   0.000   24.9    45   12.2   24.7   8.41  .0737    116    1    100.0    5 
15/11/17   8:25   10.5   10.5   10.4    93    9.4   0.0     W   0.00   2.0     W   10.5   10.7   10.7  1023.8  0.00  0.00   0.027   0.000   25.0    44   11.9   24.7   8.21  .0737    117    1    100.0    5 
15/11/17   8:30   10.5   10.5   10.5    94    9.6   1.0     W   0.08   2.0     W   10.5   10.7   10.7  1023.8  0.00  0.00   0.027   0.000   25.0    44   11.9   24.7   8.21  .0737    117    1    100.0    5 
15/11/17   8:35   10.6   10.6   10.5    94    9.6   1.0     W   0.08   2.0     W   10.6   10.8   10.8  1023.8  0.00  0.00   0.027   0.000   25.0    44   11.9   24.7   8.21  .0737    116    1    100.0    5 
15/11/17   8:40   10.6   10.6   10.6    94    9.6   1.0     W   0.08   3.0     W   10.6   10.8   10.8  1023.8  0.00  0.00   0.027   0.000   25.0    44   11.9   24.7   8.21  .0737    117    1    100.0    5 
15/11/17   8:45   10.6   10.6   10.6    94    9.6   1.0     W   0.08   2.0     W   10.6   10.8   10.8  1023.8  0.00  0.00   0.027   0.000   25.0    44   11.9   24.7   8.21  .0737    117    1    100.0    5 
15/11/17   8:50   10.6   10.6   10.6    94    9.7   1.0     W   0.08   3.0     W   10.6   10.8   10.8  1023.9  0.00  0.00   0.027   0.000   25.0    45   12.2   24.7   8.41  .0737    116    1    100.0    5 
15/11/17   8:55   10.6   10.6   10.6    94    9.7   1.0     W   0.08   3.0     W   10.6   10.8   10.8  1023.9  0.00  0.00   0.027   0.000   25.1    44   11.9   24.7   8.21  .0737    117    1    100.0    5 
15/11/17   9:00   10.6   10.6   10.6    94    9.6   1.0     W   0.08   2.0     W   10.6   10.8   10.8  1023.8  0.00  0.00   0.027   0.000   25.1    46   12.7   24.9   8.51  .0736    117    1    100.0    5 
15/11/17   9:05   10.6   10.6   10.6    94    9.6   1.0     W   0.08   2.0     W   10.6   10.8   10.8  1023.8  0.00  0.00   0.027   0.000   25.1    46   12.7   24.9   8.51  .0736    114    1    100.0    5 
15/11/17   9:10   10.5   10.6   10.5    94    9.6   2.0     W   0.17   4.0     W   10.5   10.7   10.7  1023.8  0.00  0.00   0.027   0.000   25.2    45   12.4   24.9   8.40  .0736    115    1    100.0    5 
15/11/17   9:15   10.6   10.6   10.5    94    9.6   1.0     W   0.08   2.0     W   10.6   10.8   10.8  1023.7  0.00  0.00   0.027   0.000   25.2    45   12.4   24.9   8.40  .0736    118    1    100.0    5 
15/11/17   9:20   10.6   10.6   10.6    94    9.6   1.0     W   0.08   2.0     W   10.6   10.8   10.8  1023.8  0.00  0.00   0.027   0.000   25.2    45   12.4   24.9   8.40  .0736    116    1    100.0    5 
15/11/17   9:25   10.6   10.6   10.6    94    9.7   0.0    SW   0.00   2.0    SW   10.6   10.8   10.8  1023.7  0.00  0.00   0.027   0.000   25.2    45   12.4   24.9   8.40  .0736    117    1    100.0    5 
15/11/17   9:30   10.7   10.7   10.6    94    9.8   0.0    SW   0.00   4.0    SW   10.7   10.9   10.9  1023.8  0.00  0.00   0.026   0.000   25.2    45   12.4   24.9   8.40  .0736    115    1    100.0    5 
15/11/17   9:35   10.8   10.8   10.7    94    9.9   2.0    SW   0.17   4.0    SW   10.8   10.9   10.9  1023.9  0.00  0.00   0.026   0.000   25.2    45   12.4   24.9   8.40  .0736    117    1    100.0    5 
15/11/17   9:40   10.9   10.9   10.8    94   10.0   1.0    SW   0.08   3.0    SW   10.9   11.1   11.1  1023.9  0.00  0.00   0.026   0.000   25.2    45   12.4   24.9   8.40  .0736    117    1    100.0    5 
15/11/17   9:45   10.9   10.9   10.9    94   10.0   1.0    SW   0.08   3.0    SW   10.9   11.1   11.1  1023.9  0.00  0.00   0.026   0.000   25.2    44   12.0   24.9   8.20  .0737    117    1    100.0    5 
15/11/17   9:50   11.0   11.0   10.9    94   10.1   1.0    SW   0.08   3.0    SW   11.0   11.2   11.2  1024.0  0.00  0.00   0.025   0.000   25.2    44   12.0   24.9   8.20  .0737    117    1    100.0    5 
15/11/17   9:55   11.1   11.1   11.0    94   10.2   2.0    SW   0.17   5.0    SW   11.1   11.3   11.3  1024.0  0.00  0.00   0.025   0.000   25.2    44   12.0   24.9   8.20  .0737    116    1    100.0    5 
15/11/17  10:00   11.3   11.3   11.1    94   10.3   2.0    SW   0.17   4.0    SW   11.3   11.4   11.4  1024.0  0.00  0.00   0.024   0.000   25.2    44   12.0   24.9   8.20  .0737    115    1    100.0    5 
15/11/17  10:05   11.4   11.4   11.3    95   10.6   3.0    SW   0.25   6.0    SW   11.4   11.6   11.6  1024.0  0.00  0.00   0.024   0.000   25.2    44   12.0   24.9   8.20  .0737    117    1    100.0    5 
15/11/17  10:10   11.4   11.4   11.3    94   10.5   3.0    SW   0.25   6.0    SW   11.4   11.6   11.6  1024.0  0.00  0.00   0.024   0.000   25.2    44   12.0   24.9   8.20  .0737    117    1    100.0    5 
15/11/17  10:15   11.4   11.4   11.4    94   10.5   3.0   WNW   0.25   6.0    SW   11.4   11.6   11.6  1023.9  0.00  0.00   0.024   0.000   25.2    44   12.0   24.9   8.20  .0737    117    1    100.0    5 
15/11/17  10:20   11.6   11.6   11.4    94   10.6   3.0   NNW   0.25   7.0   NNW   11.6   11.7   11.7  1024.0  0.00  0.00   0.024   0.000   25.2    44   12.0   24.9   8.20  .0737    117    1    100.0    5 
15/11/17  10:25   11.6   11.6   11.6    94   10.6   3.0    NW   0.25   7.0   NNW   11.6   11.7   11.7  1024.0  0.00  0.00   0.024   0.000   25.2    44   12.0   24.9   8.20  .0737    116    1    100.0    5 
15/11/17  10:30   11.6   11.6   11.6    94   10.7   3.0    NW   0.25   7.0   WNW   11.6   11.8   11.8  1024.0  0.00  0.00   0.023   0.000   25.1    44   12.0   24.8   8.21  .0737    114    1    100.0    5 
15/11/17  10:35   11.6   11.7   11.6    94   10.7   2.0   WNW   0.17   7.0   WNW   11.6   11.8   11.8  1023.9  0.00  0.00   0.023   0.000   25.1    44   12.0   24.8   8.21  .0737    117    1    100.0    5 
15/11/17  10:40   11.6   11.6   11.6    94   10.7   3.0   WNW   0.25   6.0   WNW   11.6   11.8   11.8  1023.9  0.00  0.00   0.023   0.000   25.1    44   12.0   24.8   8.21  .0737    117    1    100.0    5 
15/11/17  10:45   11.7   11.7   11.6    94   10.7   2.0   WNW   0.17   5.0   WNW   11.7   11.8   11.8  1023.8  0.00  0.00   0.023   0.000   25.1    44   12.0   24.8   8.21  .0737    115    1    100.0    5 
15/11/17  10:50   11.8   11.8   11.7    94   10.8   1.0   NNW   0.08   3.0   NNW   11.8   11.9   11.9  1023.8  0.00  0.00   0.023   0.000   25.1    44   12.0   24.8   8.21  .0737    117    1    100.0    5 
15/11/17  10:55   11.9   11.9   11.8    94   11.0   1.0   NNW   0.08   2.0   NNW   11.9   12.1   12.1  1023.7  0.00  0.00   0.022   0.000   25.1    44   12.0   24.8   8.21  .0737    117    1    100.0    5 
15/11/17  11:00   12.1   12.1   11.9    94   11.1   1.0   NNW   0.08   2.0   NNW   12.1   12.2   12.2  1023.7  0.00  0.00   0.022   0.000   25.1    44   11.9   24.7   8.21  .0737    117    1    100.0    5 
15/11/17  11:05   12.1   12.1   12.1    94   11.1   0.0   NNW   0.00   1.0   NNW   12.1   12.2   12.2  1023.7  0.00  0.00   0.022   0.000   25.1    44   12.0   24.8   8.21  .0737    116    1    100.0    5 
15/11/17  11:10   12.2   12.2   12.1    94   11.2   0.0   NNW   0.00   1.0   NNW   12.2   12.3   12.3  1023.6  0.00  0.00   0.021   0.000   25.2    44   12.0   24.9   8.20  .0736    117    1    100.0    5 
15/11/17  11:15   12.2   12.2   12.2    94   11.2   1.0   NNW   0.08   3.0   NNW   12.2   12.3   12.3  1023.6  0.00  0.00   0.021   0.000   25.3    43   11.8   24.9   8.05  .0736    117    1    100.0    5 
15/11/17  11:20   12.2   12.2   12.2    94   11.2   0.0   NNW   0.00   1.0   NNW   12.2   12.3   12.3  1023.6  0.00  0.00   0.021   0.000   25.3    43   11.8   25.0   8.05  .0736    116    1    100.0    5 
15/11/17  11:25   12.1   12.2   12.1    94   11.2   0.0   NNW   0.00   1.0   NNW   12.1   12.2   12.2  1023.5  0.00  0.00   0.022   0.000   25.3    43   11.8   25.0   8.05  .0736    118    1    100.0    5 
15/11/17  11:30   12.0   12.1   12.0    94   11.1   1.0    NW   0.08   2.0   NNW   12.0   12.1   12.1  1023.5  0.00  0.00   0.022   0.000   25.3    43   11.8   25.0   8.05  .0736    116    1    100.0    5 
15/11/17  11:35   12.0   12.0   12.0    94   11.1   1.0    NW   0.08   2.0    NW   12.0   12.1   12.1  1023.4  0.00  0.00   0.022   0.000   25.4    43   11.9   25.1   8.05  .0736    116    1    100.0    5 
15/11/17  11:40   11.9   12.0   11.9    94   11.0   2.0    NW   0.17   3.0    NW   11.9   12.0   12.0  1023.3  0.00  0.00   0.022   0.000   25.3    43   11.8   25.0   8.05  .0736    117    1    100.0    5 
15/11/17  11:45   11.7   11.8   11.7    93   10.6   2.0    NW   0.17   5.0    NW   11.7   11.8   11.8  1023.3  0.00  0.00   0.023   0.000   25.4    43   11.9   25.1   8.05  .0736    117    1    100.0    5 
15/11/17  11:50   11.6   11.7   11.6    94   10.7   1.0    NW   0.08   2.0    NW   11.6   11.8   11.8  1023.3  0.00  0.00   0.023   0.000   25.5    43   12.0   25.2   8.05  .0735    116    1    100.0    5 
15/11/17  11:55   11.6   11.7   11.6    94   10.7   2.0    NW   0.17   3.0    NW   11.6   11.8   11.8  1023.3  0.00  0.00   0.023   0.000   25.5    43   12.0   25.2   8.05  .0735    117    1    100.0    5 
15/11/17  12:00   11.6   11.7   11.6    94   10.7   2.0    NW   0.17   4.0    NW   11.6   11.8   11.8  1023.2  0.00  0.00   0.023   0.000   25.5    43   12.0   25.2   8.05  .0735    117    1    100.0    5 
15/11/17  12:05   11.7   11.7   11.6    94   10.7   1.0    NW   0.08   3.0    NW   11.7   11.8   11.8  1023.2  0.00  0.00   0.023   0.000   25.4    43   11.9   25.1   8.05  .0736    117    1    100.0    5 
15/11/17  12:10   11.7   11.7   11.7    94   10.8   0.0    NW   0.00   2.0    NW   11.7   11.9   11.9  1023.2  0.00  0.00   0.023   0.000   25.3    43   11.8   25.0   8.05  .0736    116    1    100.0    5 
15/11/17  12:15   11.9   11.9   11.8    94   11.0   2.0    NW   0.17   4.0    NW   11.9   12.0   12.0  1023.3  0.00  0.00   0.022   0.000   25.3    43   11.8   25.0   8.05  .0736    117    1    100.0    5 
15/11/17  12:20   12.0   12.0   11.9    94   11.1   3.0    NW   0.25   5.0    NW   12.0   12.1   12.1  1023.3  0.00  0.00   0.022   0.000   25.3    43   11.8   24.9   8.05  .0736    117    1    100.0    5 
15/11/17  12:25   12.1   12.1   12.0    94   11.2   3.0    NW   0.25   6.0    NW   12.1   12.2   12.2  1023.2  0.00  0.00   0.022   0.000   25.2    43   11.7   24.9   8.05  .0736    118    1    100.0    5 
15/11/17  12:30   12.2   12.2   12.1    94   11.2   4.0    NW   0.33   7.0    NW   11.9   12.3   12.0  1023.2  0.00  0.00   0.021   0.000   25.2    44   12.1   24.9   8.20  .0736    116    1    100.0    5 
15/11/17  12:35   12.2   12.2   12.2    93   11.1   3.0    NW   0.25   5.0    NW   12.2   12.3   12.3  1023.2  0.00  0.00   0.021   0.000   25.2    44   12.1   24.9   8.20  .0736    116    1    100.0    5 
15/11/17  12:40   12.3   12.3   12.2    93   11.2   3.0   WNW   0.25   5.0   WNW   12.3   12.4   12.4  1023.3  0.00  0.00   0.021   0.000   25.2    44   12.1   24.9   8.20  .0736    116    1    100.0    5 
15/11/17  12:45   12.3   12.3   12.3    93   11.2   2.0   WNW   0.17   4.0   WNW   12.3   12.4   12.4  1023.3  0.00  0.00   0.021   0.000   25.2    44   12.1   24.9   8.20  .0736    116    1    100.0    5 
15/11/17  12:50   12.2   12.3   12.2    93   11.1   2.0   WNW   0.17   4.0   WNW   12.2   12.3   12.3  1023.3  0.00  0.00   0.021   0.000   25.2    44   12.1   24.9   8.20  .0736    116    1    100.0    5 
15/11/17  12:55   12.3   12.3   12.2    93   11.2   1.0   WNW   0.08   4.0   WNW   12.3   12.4   12.4  1023.4  0.00  0.00   0.021   0.000   25.2    44   12.1   24.9   8.20  .0736    114    1    100.0    5 
15/11/17  13:00   12.3   12.3   12.3    93   11.2   2.0   WNW   0.17   6.0   WNW   12.3   12.4   12.4  1023.4  0.00  0.00   0.021   0.000   25.2    44   12.0   24.9   8.20  .0736    115    1    100.0    5 
15/11/17  13:05   12.4   12.4   12.3    93   11.3   2.0   WNW   0.17   5.0   WNW   12.4   12.5   12.5  1023.3  0.00  0.00   0.021   0.000   25.2    44   12.0   24.9   8.20  .0736    117    1    100.0    5 
15/11/17  13:10   12.4   12.5   12.4    93   11.3   2.0   WNW   0.17   5.0   WNW   12.4   12.6   12.6  1023.2  0.00  0.00   0.020   0.000   25.2    44   12.0   24.9   8.20  .0736    117    1    100.0    5 
15/11/17  13:15   12.6   12.6   12.5    93   11.5   2.0   WNW   0.17   4.0   WNW   12.6   12.7   12.7  1023.2  0.00  0.00   0.020   0.000   25.2    44   12.0   24.9   8.20  .0736    116    1    100.0    5 
15/11/17  13:20   12.7   12.7   12.6    92   11.4   1.0     N   0.08   3.0     N   12.7   12.7   12.7  1023.2  0.00  0.00   0.020   0.000   25.2    44   12.0   24.9   8.20  .0736    117    1    100.0    5 
15/11/17  13:25   12.8   12.8   12.7    92   11.5   1.0     N   0.08   3.0     N   12.8   12.8   12.8  1023.2  0.00  0.00   0.019   0.000   25.2    44   12.0   24.9   8.20  .0736    117    1    100.0    5 
15/11/17  13:30   12.8   12.8   12.8    92   11.6   2.0     N   0.17   5.0     N   12.8   12.9   12.9  1023.3  0.00  0.00   0.019   0.000   25.1    43   11.6   24.8   8.05  .0737    117    1    100.0    5 
15/11/17  13:35   12.8   12.8   12.8    92   11.5   2.0     N   0.17   5.0     N   12.8   12.8   12.8  1023.2  0.00  0.00   0.019   0.000   25.2    44   12.0   24.9   8.20  .0736    117    1    100.0    5 
15/11/17  13:40   12.8   12.8   12.8    92   11.5   2.0     N   0.17   5.0     N   12.8   12.8   12.8  1023.2  0.00  0.00   0.019   0.000   25.1    43   11.6   24.8   8.05  .0736    117    1    100.0    5 
15/11/17  13:45   12.8   12.8   12.8    92   11.6   1.0     N   0.08   3.0     N   12.8   12.9   12.9  1023.2  0.00  0.00   0.019   0.000   25.1    43   11.6   24.8   8.05  .0736    117    1    100.0    5 
15/11/17  13:50   12.9   12.9   12.8    92   11.6   2.0     N   0.17   4.0     N   12.9   12.9   12.9  1023.1  0.00  0.00   0.019   0.000   25.1    43   11.6   24.8   8.05  .0736    116    1    100.0    5 
15/11/17  13:55   12.9   12.9   12.8    92   11.7   1.0     N   0.08   3.0     N   12.9   13.0   13.0  1023.1  0.00  0.00   0.019   0.000   25.1    43   11.6   24.8   8.05  .0736    116    1    100.0    5 
15/11/17  14:00   13.0   13.0   12.9    92   11.7   0.0     N   0.00   2.0     N   13.0   13.1   13.1  1023.0  0.00  0.00   0.019   0.000   25.1    43   11.6   24.8   8.05  .0736    116    1    100.0    5 
15/11/17  14:05   13.1   13.1   13.0    92   11.8   1.0   NNW   0.08   2.0   NNW   13.1   13.2   13.2  1023.0  0.00  0.00   0.018   0.000   25.1    43   11.6   24.7   8.05  .0736    116    1    100.0    5 
15/11/17  14:10   12.9   13.1   12.9    91   11.5   2.0   WNW   0.17   4.0   WNW   12.9   13.0   13.0  1023.0  0.00  0.00   0.019   0.000   25.1    43   11.6   24.7   8.05  .0736    117    1    100.0    5 
15/11/17  14:15   12.8   12.9   12.8    91   11.3   2.0     W   0.17   3.0     W   12.8   12.8   12.8  1023.0  0.00  0.00   0.019   0.000   25.1    43   11.6   24.8   8.05  .0736    116    1    100.0    5 
15/11/17  14:20   12.7   12.8   12.7    91   11.2   1.0     W   0.08   3.0     W   12.7   12.7   12.7  1023.0  0.00  0.00   0.020   0.000   25.1    44   12.0   24.8   8.21  .0736    115    1    100.0    5 
15/11/17  14:25   12.5   12.7   12.5    91   11.1   2.0     W   0.17   4.0     W   12.5   12.6   12.6  1023.1  0.00  0.00   0.020   0.000   25.1    44   12.0   24.8   8.21  .0736    115    1    100.0    5 
15/11/17  14:30   12.3   12.5   12.3    91   10.9   1.0     W   0.08   3.0     W   12.3   12.4   12.4  1023.0  0.00  0.00   0.021   0.000   25.1    44   12.0   24.8   8.21  .0736    117    1    100.0    5 
15/11/17  14:35   12.2   12.3   12.2    91   10.8   1.0     W   0.08   2.0     W   12.2   12.3   12.3  1023.0  0.00  0.00   0.021   0.000   25.1    44   12.0   24.8   8.21  .0736    118    1    100.0    5 
15/11/17  14:40   12.2   12.2   12.2    91   10.7   1.0     W   0.08   3.0     W   12.2   12.2   12.2  1023.1  0.00  0.00   0.021   0.000   25.1    44   12.0   24.8   8.21  .0736    116    1    100.0    5 
15/11/17  14:45   12.1   12.2   12.1    91   10.6   2.0     W   0.17   3.0     W   12.1   12.1   12.1  1023.1  0.00  0.00   0.022   0.000   25.2    44   12.0   24.9   8.20  .0736    116    1    100.0    5 
15/11/17  14:50   12.0   12.1   12.0    91   10.6   1.0     W   0.08   3.0     W   12.0   12.1   12.1  1023.1  0.00  0.00   0.022   0.000   25.1    44   12.0   24.8   8.21  .0736    114    1    100.0    5 
15/11/17  14:55   11.9   12.0   11.9    92   10.7   1.0     W   0.08   2.0     W   11.9   12.1   12.1  1023.1  0.00  0.00   0.022   0.000   25.1    44   12.0   24.8   8.21  .0736    116    1    100.0    5 
15/11/17  15:00   11.9   11.9   11.9    92   10.6   2.0     W   0.17   3.0     W   11.9   12.0   12.0  1023.1  0.00  0.00   0.022   0.000   25.1    44   12.0   24.8   8.21  .0736    117    1    100.0    5 
15/11/17  15:05   11.8   11.9   11.8    92   10.6   2.0     W   0.17   3.0     W   11.8   11.9   11.9  1023.1  0.00  0.00   0.023   0.000   25.1    44   12.0   24.8   8.21  .0736    112    1     98.2    5 
15/11/17  15:10   11.8   11.8   11.8    92   10.6   1.0     W   0.08   3.0     W   11.8   11.9   11.9  1023.1  0.00  0.00   0.023   0.000   25.1    44   12.0   24.8   8.21  .0736    117    1    100.0    5 
15/11/17  15:15   11.8   11.8   11.8    92   10.5   1.0     W   0.08   2.0     W   11.8   11.9   11.9  1023.2  0.00  0.00   0.023   0.000   25.1    44   12.0   24.8   8.21  .0736    114    1    100.0    5 
15/11/17  15:20   11.7   11.8   11.7    92   10.5   2.0     W   0.17   3.0     W   11.7   11.8   11.8  1023.2  0.00  0.00   0.023   0.000   25.1    44   12.0   24.8   8.21  .0736    116    1    100.0    5 
15/11/17  15:25   11.7   11.7   11.7    92   10.4   1.0     W   0.08   2.0     W   11.7   11.8   11.8  1023.2  0.00  0.00   0.023   0.000   25.1    44   12.0   24.8   8.21  .0736    116    1    100.0    5 
15/11/17  15:30   11.6   11.7   11.6    92   10.4   2.0     W   0.17   3.0     W   11.6   11.7   11.7  1023.2  0.00  0.00   0.023   0.000   25.1    44   12.0   24.8   8.21  .0736    117    1    100.0    5 
15/11/17  15:35   11.6   11.6   11.6    92   10.4   2.0     N   0.17   3.0     N   11.6   11.7   11.7  1023.2  0.00  0.00   0.023   0.000   25.1    44   12.0   24.8   8.21  .0736    115    1    100.0    5 
15/11/17  15:40   11.6   11.6   11.6    92   10.4   2.0     N   0.17   4.0     N   11.6   11.7   11.7  1023.3  0.00  0.00   0.023   0.000   25.1    44   11.9   24.7   8.21  .0736    116    1    100.0    5 
15/11/17  15:45   11.6   11.6   11.6    92   10.4   3.0    NW   0.25   6.0    NW   11.6   11.7   11.7  1023.3  0.00  0.00   0.023   0.000   25.1    44   11.9   24.7   8.21  .0736    115    1    100.0    5 
15/11/17  15:50   11.6   11.6   11.6    92   10.4   2.0    NW   0.17   5.0    NW   11.6   11.7   11.7  1023.3  0.00  0.00   0.023   0.000   25.1    44   11.9   24.7   8.21  .0736    113    1     99.1    5 
15/11/17  15:55   11.6   11.6   11.6    92   10.4   2.0    NW   0.17   3.0    NW   11.6   11.7   11.7  1023.2  0.00  0.00   0.023   0.000   25.1    44   11.9   24.7   8.21  .0736    117    1    100.0    5 
15/11/17  16:00   11.6   11.6   11.6    92   10.4   2.0    NW   0.17   4.0    NW   11.6   11.7   11.7  1023.1  0.00  0.00   0.023   0.000   25.1    44   11.9   24.7   8.21  .0736    116    1    100.0    5 
15/11/17  16:05   11.6   11.6   11.6    92   10.3   2.0    NW   0.17   4.0    NW   11.6   11.7   11.7  1023.0  0.00  0.00   0.024   0.000   25.0    44   11.9   24.7   8.21  .0736    116    1    100.0    5 
15/11/17  16:10   11.6   11.6   11.6    92   10.3   0.0    NW   0.00   3.0    NW   11.6   11.7   11.7  1022.9  0.00  0.00   0.024   0.000   25.0    43   11.5   24.7   8.05  .0737    115    1    100.0    5 
15/11/17  16:15   11.6   11.6   11.6    92   10.3   0.0   ---   0.00   0.0   ---   11.6   11.7   11.7  1023.0  0.00  0.00   0.024   0.000   25.0    44   11.9   24.7   8.21  .0736    116    1    100.0    5 
15/11/17  16:20   11.6   11.6   11.6    92   10.3   0.0    NW   0.00   1.0    NW   11.6   11.7   11.7  1023.0  0.00  0.00   0.024   0.000   25.0    44   11.9   24.7   8.21  .0736    116    1    100.0    5 
15/11/17  16:25   11.6   11.6   11.6    92   10.3   1.0    NW   0.08   2.0    NW   11.6   11.7   11.7  1023.0  0.00  0.00   0.024   0.000   24.9    43   11.5   24.6   8.05  .0737    116    1    100.0    5 
15/11/17  16:30   11.6   11.6   11.6    92   10.3   2.0    NW   0.17   3.0    NW   11.6   11.7   11.7  1022.9  0.00  0.00   0.024   0.000   24.9    43   11.5   24.6   8.05  .0737    115    1    100.0    5 
15/11/17  16:35   11.5   11.6   11.5    92   10.2   2.0    NW   0.17   4.0    NW   11.5   11.6   11.6  1023.0  0.00  0.00   0.024   0.000   24.9    44   11.8   24.6   8.21  .0737    117    1    100.0    5 
15/11/17  16:40   11.5   11.5   11.4    92   10.2   2.0    NW   0.17   4.0    NW   11.5   11.6   11.6  1023.0  0.00  0.00   0.024   0.000   24.9    43   11.4   24.6   8.05  .0737    117    1    100.0    5 
15/11/17  16:45   11.4   11.5   11.4    92   10.2   2.0    NW   0.17   4.0    NW   11.4   11.6   11.6  1023.0  0.00  0.00   0.024   0.000   24.9    43   11.4   24.6   8.05  .0737    115    1    100.0    5 
15/11/17  16:50   11.4   11.4   11.4    93   10.4   2.0    NW   0.17   4.0    NW   11.4   11.6   11.6  1023.1  0.00  0.00   0.024   0.000   24.9    44   11.8   24.6   8.21  .0737    117    1    100.0    5 
15/11/17  16:55   11.5   11.5   11.4    93   10.4   2.0    NW   0.17   5.0    NW   11.5   11.6   11.6  1023.0  0.00  0.00   0.024   0.000   24.9    43   11.4   24.6   8.05  .0737    114    1    100.0    5 
15/11/17  17:00   11.5   11.5   11.4    93   10.4   2.0    NW   0.17   4.0    NW   11.5   11.6   11.6  1023.1  0.00  0.00   0.024   0.000   24.9    44   11.8   24.6   8.21  .0737    115    1    100.0    5 
15/11/17  17:05   11.5   11.5   11.5    93   10.4   2.0    NW   0.17   5.0    NW   11.5   11.6   11.6  1023.0  0.00  0.00   0.024   0.000   24.9    44   11.8   24.6   8.21  .0737    117    1    100.0    5 
15/11/17  17:10   11.5   11.5   11.5    93   10.4   0.0    NW   0.00   3.0    NW   11.5   11.6   11.6  1022.9  0.00  0.00   0.024   0.000   24.9    44   11.8   24.6   8.21  .0737    117    1    100.0    5 
15/11/17  17:15   11.5   11.5   11.5    93   10.4   0.0   ---   0.00   0.0   ---   11.5   11.6   11.6  1022.9  0.00  0.00   0.024   0.000   24.9    44   11.8   24.6   8.21  .0737    116    1    100.0    5 
15/11/17  17:20   11.5   11.5   11.5    93   10.4   1.0    NW   0.08   3.0    NW   11.5   11.6   11.6  1023.0  0.00  0.00   0.024   0.000   24.9    44   11.8   24.6   8.21  .0737    114    1    100.0    5 
15/11/17  17:25   11.5   11.5   11.5    93   10.4   2.0    NW   0.17   4.0    NW   11.5   11.6   11.6  1023.1  0.00  0.00   0.024   0.000   24.9    44   11.8   24.6   8.21  .0737    117    1    100.0    5 
15/11/17  17:30   11.5   11.5   11.5    93   10.4   2.0    NW   0.17   5.0    NW   11.5   11.6   11.6  1023.1  0.00  0.00   0.024   0.000   24.8    44   11.7   24.6   8.22  .0737    117    1    100.0    5 
103208